AAL9600 NZAA-KLAX
Flight info
| Callsign | AAL9600 |
|---|---|
| Flight time | 11h 39m |
| Altitude | 31000 |
| Route | OLBEX G599 MUKLU DCT 30S169W DCT PABGO/N0482F330 L508 RG B454 BIBUP DCT 15S156W 10S154W DCT TOPOM/N0473F350 DCT 02S150W DCT BISOX DCT 05N147W 10N144W 15N141W/N0463F370 DCT BELAN DCT 23N135W DCT AFONE DCT 27N130W 30N125W DCT FICKY GOATZ2 |
| Aircraft | B772/H-SDE1E2E3FGHIJ2J4J5J7LOP1P2RVWXY/LB1D1 |
Departure
| Time | 2026-04-23 15:14 |
|---|---|
| Airport | Auckland International Airport (NZAA) |
Arrival
| Time | 2026-04-24 02:54 |
|---|---|
| Airport | Los Angeles International Airport (KLAX) |
| Time | Latitude | Longitude | Altitude | Speed | Heading |
|---|---|---|---|---|---|
| 2026-04-23 14:10 | -37.00518 | 174.77795 | 45 ft | 0 kts | 341° |
| 2026-04-23 14:53 | -37.00521 | 174.77797 | 44 ft | 2 kts | 341° |
| 2026-04-23 14:54 | -37.00536 | 174.77803 | 44 ft | 2 kts | 341° |
| 2026-04-23 14:54 | -37.00550 | 174.77809 | 44 ft | 2 kts | 341° |
| 2026-04-23 14:54 | -37.00564 | 174.77815 | 43 ft | 2 kts | 341° |
| 2026-04-23 14:54 | -37.00578 | 174.77821 | 43 ft | 2 kts | 341° |
| 2026-04-23 14:55 | -37.00588 | 174.77824 | 43 ft | 1 kts | 341° |
| 2026-04-23 14:55 | -37.00601 | 174.77832 | 42 ft | 2 kts | 317° |
| 2026-04-23 14:55 | -37.00610 | 174.77847 | 42 ft | 2 kts | 290° |
| 2026-04-23 14:55 | -37.00613 | 174.77866 | 42 ft | 2 kts | 265° |
| 2026-04-23 14:56 | -37.00611 | 174.77876 | 42 ft | 0 kts | 250° |
| 2026-04-23 14:56 | -37.00610 | 174.77881 | 42 ft | 0 kts | 250° |
| 2026-04-23 14:59 | -37.00610 | 174.77878 | 42 ft | 1 kts | 251° |
| 2026-04-23 14:59 | -37.00623 | 174.77834 | 42 ft | 9 kts | 251° |
| 2026-04-23 14:59 | -37.00652 | 174.77725 | 41 ft | 16 kts | 251° |
| 2026-04-23 14:59 | -37.00689 | 174.77591 | 39 ft | 16 kts | 248° |
| 2026-04-23 15:00 | -37.00772 | 174.77554 | 37 ft | 12 kts | 159° |
| 2026-04-23 15:00 | -37.00856 | 174.77593 | 35 ft | 12 kts | 160° |
| 2026-04-23 15:00 | -37.00937 | 174.77626 | 34 ft | 12 kts | 161° |
| 2026-04-23 15:00 | -37.01016 | 174.77660 | 34 ft | 11 kts | 161° |
| 2026-04-23 15:01 | -37.01093 | 174.77693 | 32 ft | 12 kts | 160° |
| 2026-04-23 15:01 | -37.01173 | 174.77728 | 31 ft | 11 kts | 160° |
| 2026-04-23 15:01 | -37.01235 | 174.77765 | 31 ft | 7 kts | 121° |
| 2026-04-23 15:01 | -37.01232 | 174.77830 | 31 ft | 7 kts | 71° |
| 2026-04-23 15:02 | -37.01220 | 174.77872 | 31 ft | 7 kts | 70° |
| 2026-04-23 15:02 | -37.01193 | 174.77969 | 31 ft | 11 kts | 71° |
| 2026-04-23 15:02 | -37.01162 | 174.78081 | 31 ft | 15 kts | 71° |
| 2026-04-23 15:02 | -37.01126 | 174.78214 | 31 ft | 15 kts | 70° |
| 2026-04-23 15:03 | -37.01091 | 174.78336 | 31 ft | 14 kts | 71° |
| 2026-04-23 15:03 | -37.01060 | 174.78451 | 31 ft | 13 kts | 72° |
| 2026-04-23 15:03 | -37.01031 | 174.78555 | 31 ft | 12 kts | 68° |
| 2026-04-23 15:03 | -37.01002 | 174.78654 | 31 ft | 12 kts | 70° |
| 2026-04-23 15:04 | -37.00973 | 174.78766 | 32 ft | 14 kts | 71° |
| 2026-04-23 15:04 | -37.00936 | 174.78897 | 34 ft | 16 kts | 71° |
| 2026-04-23 15:04 | -37.00899 | 174.79030 | 36 ft | 15 kts | 70° |
| 2026-04-23 15:04 | -37.00862 | 174.79164 | 37 ft | 16 kts | 70° |
| 2026-04-23 15:05 | -37.00823 | 174.79308 | 35 ft | 18 kts | 71° |
| 2026-04-23 15:05 | -37.00782 | 174.79456 | 38 ft | 17 kts | 71° |
| 2026-04-23 15:05 | -37.00740 | 174.79605 | 38 ft | 18 kts | 70° |
| 2026-04-23 15:05 | -37.00701 | 174.79747 | 41 ft | 17 kts | 71° |
| 2026-04-23 15:06 | -37.00661 | 174.79890 | 41 ft | 17 kts | 70° |
| 2026-04-23 15:06 | -37.00621 | 174.80039 | 42 ft | 18 kts | 71° |
| 2026-04-23 15:06 | -37.00578 | 174.80193 | 41 ft | 19 kts | 71° |
| 2026-04-23 15:06 | -37.00532 | 174.80356 | 41 ft | 20 kts | 71° |
| 2026-04-23 15:07 | -37.00491 | 174.80504 | 38 ft | 12 kts | 71° |
| 2026-04-23 15:07 | -37.00486 | 174.80539 | 38 ft | 2 kts | 91° |
| 2026-04-23 15:07 | -37.00486 | 174.80545 | 38 ft | 0 kts | 98° |
| 2026-04-23 15:11 | -37.00494 | 174.80571 | 37 ft | 6 kts | 119° |
| 2026-04-23 15:11 | -37.00548 | 174.80606 | 38 ft | 11 kts | 194° |
| 2026-04-23 15:12 | -37.00619 | 174.80565 | 38 ft | 10 kts | 205° |
| 2026-04-23 15:12 | -37.00677 | 174.80515 | 38 ft | 9 kts | 243° |
| 2026-04-23 15:12 | -37.00682 | 174.80499 | 38 ft | 0 kts | 250° |
| 2026-04-23 15:12 | -37.00696 | 174.80452 | 38 ft | 24 kts | 250° |
| 2026-04-23 15:13 | -37.00816 | 174.80023 | 41 ft | 78 kts | 250° |
| 2026-04-23 15:13 | -37.01043 | 174.79199 | 34 ft | 121 kts | 251° |
| 2026-04-23 15:13 | -37.01356 | 174.78072 | 32 ft | 153 kts | 249° |
| 2026-04-23 15:13 | -37.01711 | 174.76746 | 231 ft | 159 kts | 250° |
| 2026-04-23 15:14 | -37.02049 | 174.75404 | 503 ft | 166 kts | 250° |
| 2026-04-23 15:14 | -37.02422 | 174.74004 | 811 ft | 174 kts | 248° |
| 2026-04-23 15:14 | -37.02835 | 174.72554 | 1114 ft | 180 kts | 248° |
| 2026-04-23 15:14 | -37.03261 | 174.71050 | 1170 ft | 190 kts | 248° |
| 2026-04-23 15:15 | -37.03711 | 174.69434 | 1227 ft | 201 kts | 249° |
| 2026-04-23 15:15 | -37.04179 | 174.67747 | 1336 ft | 211 kts | 249° |
| 2026-04-23 15:15 | -37.04667 | 174.65985 | 1438 ft | 223 kts | 249° |
| 2026-04-23 15:15 | -37.05191 | 174.64093 | 1473 ft | 239 kts | 249° |
| 2026-04-23 15:16 | -37.05759 | 174.62045 | 1652 ft | 254 kts | 249° |
| 2026-04-23 15:16 | -37.06338 | 174.59947 | 2071 ft | 259 kts | 249° |
| 2026-04-23 15:16 | -37.06960 | 174.57819 | 2454 ft | 264 kts | 240° |
| 2026-04-23 15:16 | -37.08141 | 174.56035 | 2804 ft | 266 kts | 211° |
| 2026-04-23 15:17 | -37.09822 | 174.55160 | 3254 ft | 262 kts | 185° |
| 2026-04-23 15:17 | -37.11610 | 174.55299 | 3695 ft | 258 kts | 162° |
| 2026-04-23 15:17 | -37.13336 | 174.55925 | 4192 ft | 258 kts | 159° |
| 2026-04-23 15:17 | -37.15037 | 174.56622 | 4709 ft | 258 kts | 158° |
| 2026-04-23 15:18 | -37.16690 | 174.57452 | 5142 ft | 257 kts | 144° |
| 2026-04-23 15:18 | -37.17978 | 174.58993 | 5472 ft | 257 kts | 119° |
| 2026-04-23 15:18 | -37.18608 | 174.61057 | 5914 ft | 254 kts | 96° |
| 2026-04-23 15:18 | -37.18505 | 174.63237 | 6405 ft | 252 kts | 76° |
| 2026-04-23 15:19 | -37.18043 | 174.65346 | 6842 ft | 254 kts | 72° |
| 2026-04-23 15:19 | -37.17504 | 174.67458 | 7288 ft | 255 kts | 72° |
| 2026-04-23 15:19 | -37.16948 | 174.69563 | 7768 ft | 255 kts | 71° |
| 2026-04-23 15:19 | -37.16389 | 174.71666 | 8191 ft | 256 kts | 70° |
| 2026-04-23 15:20 | -37.16011 | 174.73090 | 8464 ft | 257 kts | 70° |
| 2026-04-23 15:20 | -37.15255 | 174.75938 | 8948 ft | 260 kts | 70° |
| 2026-04-23 15:20 | -37.14682 | 174.78090 | 9366 ft | 260 kts | 70° |
| 2026-04-23 15:20 | -37.14109 | 174.80246 | 9750 ft | 261 kts | 69° |
| 2026-04-23 15:21 | -37.13531 | 174.82414 | 10052 ft | 264 kts | 70° |
| 2026-04-23 15:21 | -37.12936 | 174.84642 | 10114 ft | 277 kts | 70° |
| 2026-04-23 15:21 | -37.12309 | 174.86992 | 10114 ft | 292 kts | 70° |
| 2026-04-23 15:21 | -37.11649 | 174.89459 | 10114 ft | 307 kts | 70° |
| 2026-04-23 15:22 | -37.10949 | 174.92076 | 10135 ft | 322 kts | 70° |
| 2026-04-23 15:22 | -37.10223 | 174.94789 | 10166 ft | 337 kts | 70° |
| 2026-04-23 15:22 | -37.09468 | 174.97607 | 10331 ft | 348 kts | 70° |
| 2026-04-23 15:22 | -37.08698 | 175.00485 | 10799 ft | 349 kts | 70° |
| 2026-04-23 15:23 | -37.07926 | 175.03361 | 11289 ft | 350 kts | 70° |
| 2026-04-23 15:23 | -37.07144 | 175.06271 | 11712 ft | 353 kts | 70° |
| 2026-04-23 15:23 | -37.06355 | 175.09203 | 12178 ft | 356 kts | 70° |
| 2026-04-23 15:23 | -37.05570 | 175.12120 | 12637 ft | 358 kts | 70° |
| 2026-04-23 15:24 | -37.04765 | 175.15102 | 13106 ft | 360 kts | 70° |
| 2026-04-23 15:24 | -37.03969 | 175.18053 | 13556 ft | 363 kts | 70° |
| 2026-04-23 15:24 | -37.03153 | 175.21071 | 14047 ft | 366 kts | 69° |
| 2026-04-23 15:24 | -37.02338 | 175.24085 | 14527 ft | 368 kts | 69° |
| 2026-04-23 15:25 | -37.01519 | 175.27107 | 14953 ft | 371 kts | 69° |
| 2026-04-23 15:25 | -37.00685 | 175.30182 | 15448 ft | 375 kts | 69° |
| 2026-04-23 15:25 | -36.99853 | 175.33243 | 15976 ft | 376 kts | 68° |
| 2026-04-23 15:25 | -36.98922 | 175.36307 | 16453 ft | 376 kts | 63° |
| 2026-04-23 15:26 | -36.97807 | 175.39278 | 16881 ft | 379 kts | 62° |
| 2026-04-23 15:26 | -36.96682 | 175.42232 | 17320 ft | 382 kts | 62° |
| 2026-04-23 15:26 | -36.95534 | 175.45247 | 17817 ft | 384 kts | 62° |
| 2026-04-23 15:26 | -36.94389 | 175.48251 | 18319 ft | 386 kts | 62° |
| 2026-04-23 15:27 | -36.93232 | 175.51285 | 18780 ft | 388 kts | 62° |
| 2026-04-23 15:27 | -36.92064 | 175.54346 | 19192 ft | 391 kts | 62° |
| 2026-04-23 15:27 | -36.90894 | 175.57411 | 19598 ft | 394 kts | 62° |
| 2026-04-23 15:27 | -36.89711 | 175.60506 | 20003 ft | 397 kts | 62° |
| 2026-04-23 15:28 | -36.88507 | 175.63652 | 20424 ft | 400 kts | 62° |
| 2026-04-23 15:28 | -36.87310 | 175.66777 | 20863 ft | 402 kts | 62° |
| 2026-04-23 15:28 | -36.86104 | 175.69923 | 21323 ft | 403 kts | 62° |
| 2026-04-23 15:28 | -36.84890 | 175.73090 | 21762 ft | 404 kts | 62° |
| 2026-04-23 15:29 | -36.83679 | 175.76242 | 22146 ft | 407 kts | 62° |
| 2026-04-23 15:29 | -36.82446 | 175.79450 | 22582 ft | 409 kts | 62° |
| 2026-04-23 15:29 | -36.81213 | 175.82651 | 22977 ft | 412 kts | 62° |
| 2026-04-23 15:29 | -36.79977 | 175.85860 | 23326 ft | 415 kts | 62° |
| 2026-04-23 15:30 | -36.78724 | 175.89110 | 23650 ft | 419 kts | 62° |
| 2026-04-23 15:30 | -36.77452 | 175.92403 | 24000 ft | 421 kts | 62° |
| 2026-04-23 15:30 | -36.76181 | 175.95692 | 24411 ft | 423 kts | 62° |
| 2026-04-23 15:30 | -36.74902 | 175.98999 | 24720 ft | 427 kts | 62° |
| 2026-04-23 15:31 | -36.73603 | 176.02353 | 24906 ft | 434 kts | 62° |
| 2026-04-23 15:31 | -36.72281 | 176.05762 | 25173 ft | 438 kts | 62° |
| 2026-04-23 15:31 | -36.70960 | 176.09168 | 25506 ft | 441 kts | 62° |
| 2026-04-23 15:31 | -36.69625 | 176.12604 | 25845 ft | 443 kts | 62° |
| 2026-04-23 15:32 | -36.68268 | 176.16092 | 26131 ft | 447 kts | 62° |
| 2026-04-23 15:32 | -36.66916 | 176.19566 | 26407 ft | 450 kts | 62° |
| 2026-04-23 15:32 | -36.65541 | 176.23090 | 26651 ft | 454 kts | 62° |
| 2026-04-23 15:32 | -36.64151 | 176.26653 | 26913 ft | 458 kts | 62° |
| 2026-04-23 15:33 | -36.62738 | 176.30270 | 27165 ft | 461 kts | 62° |
| 2026-04-23 15:33 | -36.61337 | 176.33853 | 27400 ft | 465 kts | 62° |
| 2026-04-23 15:33 | -36.59921 | 176.37470 | 27640 ft | 468 kts | 62° |
| 2026-04-23 15:33 | -36.58488 | 176.41124 | 27880 ft | 471 kts | 62° |
| 2026-04-23 15:34 | -36.57022 | 176.44861 | 28128 ft | 474 kts | 62° |
| 2026-04-23 15:34 | -36.55580 | 176.48529 | 28358 ft | 477 kts | 62° |
| 2026-04-23 15:34 | -36.54095 | 176.52306 | 28564 ft | 480 kts | 61° |
| 2026-04-23 15:34 | -36.52609 | 176.56078 | 28785 ft | 483 kts | 61° |
| 2026-04-23 15:35 | -36.51112 | 176.59872 | 28984 ft | 486 kts | 61° |
| 2026-04-23 15:35 | -36.49596 | 176.63711 | 29176 ft | 489 kts | 62° |
| 2026-04-23 15:35 | -36.48092 | 176.67519 | 29367 ft | 492 kts | 61° |
| 2026-04-23 15:35 | -36.46569 | 176.71365 | 29603 ft | 494 kts | 60° |
| 2026-04-23 15:36 | -36.45032 | 176.75246 | 29843 ft | 495 kts | 60° |
| 2026-04-23 15:36 | -36.43520 | 176.79059 | 30161 ft | 495 kts | 60° |
| 2026-04-23 15:36 | -36.41969 | 176.82967 | 30465 ft | 495 kts | 60° |
| 2026-04-23 15:36 | -36.40451 | 176.86783 | 30658 ft | 496 kts | 60° |
| 2026-04-23 15:37 | -36.38907 | 176.90660 | 30843 ft | 498 kts | 60° |
| 2026-04-23 15:37 | -36.37376 | 176.94502 | 31015 ft | 499 kts | 60° |
| 2026-04-23 15:37 | -36.36334 | 176.97113 | 31134 ft | 500 kts | 60° |
| 2026-04-23 15:38 | -36.32687 | 177.06238 | 31224 ft | 505 kts | 60° |
| 2026-04-23 15:38 | -36.29547 | 177.14070 | 31221 ft | 506 kts | 59° |
| 2026-04-23 15:39 | -36.26399 | 177.21907 | 31211 ft | 504 kts | 59° |
| 2026-04-23 15:39 | -36.23261 | 177.29698 | 31204 ft | 507 kts | 59° |
| 2026-04-23 15:40 | -36.20097 | 177.37535 | 31240 ft | 508 kts | 59° |
| 2026-04-23 15:40 | -36.16941 | 177.45335 | 31228 ft | 509 kts | 59° |
| 2026-04-23 15:41 | -36.13769 | 177.53154 | 31214 ft | 511 kts | 59° |
| 2026-04-23 15:41 | -36.10567 | 177.61026 | 31219 ft | 513 kts | 59° |
| 2026-04-23 15:42 | -36.07339 | 177.68947 | 31215 ft | 514 kts | 58° |
| 2026-04-23 15:42 | -36.04128 | 177.76805 | 31191 ft | 514 kts | 58° |
| 2026-04-23 15:43 | -36.00897 | 177.84692 | 31197 ft | 516 kts | 58° |
| 2026-04-23 15:43 | -35.97644 | 177.92613 | 31185 ft | 518 kts | 58° |
| 2026-04-23 15:44 | -35.94402 | 178.00490 | 31212 ft | 519 kts | 58° |
| 2026-04-23 15:44 | -35.91128 | 178.08426 | 31193 ft | 520 kts | 57° |
| 2026-04-23 15:45 | -35.87835 | 178.16386 | 31234 ft | 523 kts | 58° |
| 2026-04-23 15:45 | -35.84543 | 178.24330 | 31230 ft | 519 kts | 58° |
| 2026-04-23 15:46 | -35.81222 | 178.32318 | 31227 ft | 524 kts | 58° |
| 2026-04-23 15:46 | -35.77899 | 178.40292 | 31240 ft | 526 kts | 57° |
| 2026-04-23 15:47 | -35.74558 | 178.48294 | 31235 ft | 527 kts | 57° |
| 2026-04-23 15:47 | -35.71199 | 178.56317 | 31223 ft | 529 kts | 57° |
| 2026-04-23 15:48 | -35.67876 | 178.64445 | 31251 ft | 534 kts | 60° |
| 2026-04-23 15:48 | -35.64849 | 178.72733 | 31235 ft | 531 kts | 60° |
| 2026-04-23 15:49 | -35.61794 | 178.81050 | 31218 ft | 536 kts | 59° |
| 2026-04-23 15:49 | -35.58709 | 178.89400 | 31225 ft | 535 kts | 59° |
| 2026-04-23 15:50 | -35.55600 | 178.97769 | 31219 ft | 538 kts | 59° |
| 2026-04-23 15:50 | -35.52477 | 179.06143 | 31236 ft | 540 kts | 59° |
| 2026-04-23 15:51 | -35.49362 | 179.14470 | 31235 ft | 539 kts | 59° |
| 2026-04-23 15:51 | -35.46200 | 179.22893 | 31264 ft | 543 kts | 59° |
| 2026-04-23 15:52 | -35.43041 | 179.31291 | 31225 ft | 541 kts | 59° |
| 2026-04-23 15:52 | -35.39870 | 179.39691 | 31229 ft | 543 kts | 59° |
| 2026-04-23 15:53 | -35.36720 | 179.48018 | 31214 ft | 543 kts | 59° |
| 2026-04-23 15:53 | -35.33515 | 179.56461 | 31240 ft | 548 kts | 59° |
| 2026-04-23 15:54 | -35.30284 | 179.64957 | 31243 ft | 546 kts | 59° |
| 2026-04-23 15:54 | -35.27095 | 179.73323 | 31220 ft | 544 kts | 58° |
| 2026-04-23 15:55 | -35.23864 | 179.81766 | 31205 ft | 550 kts | 58° |
| 2026-04-23 15:55 | -35.20610 | 179.90251 | 31227 ft | 552 kts | 58° |
| 2026-04-23 15:56 | -35.17347 | 179.98744 | 31223 ft | 550 kts | 58° |
| 2026-04-23 15:56 | -35.14088 | -179.92804 | 31206 ft | 552 kts | 57° |
| 2026-04-23 15:57 | -35.10820 | -179.84345 | 31204 ft | 552 kts | 57° |
| 2026-04-23 15:57 | -35.07508 | -179.75798 | 31217 ft | 555 kts | 57° |
| 2026-04-23 15:58 | -35.04230 | -179.67358 | 31220 ft | 554 kts | 57° |
| 2026-04-23 15:58 | -35.00902 | -179.58817 | 31215 ft | 559 kts | 58° |
| 2026-04-23 15:59 | -34.97585 | -179.50317 | 31226 ft | 556 kts | 57° |
| 2026-04-23 15:59 | -34.94246 | -179.41788 | 31213 ft | 558 kts | 56° |
| 2026-04-23 16:00 | -34.90912 | -179.33292 | 31210 ft | 554 kts | 57° |
| 2026-04-23 16:00 | -34.87592 | -179.24858 | 31211 ft | 558 kts | 56° |
| 2026-04-23 16:01 | -34.84211 | -179.16292 | 31216 ft | 559 kts | 57° |
| 2026-04-23 16:01 | -34.80842 | -179.07771 | 31233 ft | 558 kts | 56° |
| 2026-04-23 16:02 | -34.77486 | -178.99306 | 31225 ft | 557 kts | 56° |
| 2026-04-23 16:02 | -34.74123 | -178.90849 | 31221 ft | 560 kts | 56° |
| 2026-04-23 16:03 | -34.70697 | -178.82260 | 31226 ft | 562 kts | 56° |
| 2026-04-23 16:03 | -34.67296 | -178.73747 | 31222 ft | 561 kts | 56° |
| 2026-04-23 16:04 | -34.63870 | -178.65196 | 31228 ft | 563 kts | 56° |
| 2026-04-23 16:04 | -34.60449 | -178.56679 | 31231 ft | 561 kts | 56° |
| 2026-04-23 16:05 | -34.57591 | -178.49579 | 31224 ft | 561 kts | 56° |
| 2026-04-23 16:05 | -34.53586 | -178.39659 | 31195 ft | 561 kts | 55° |
| 2026-04-23 16:06 | -34.50152 | -178.31177 | 31199 ft | 566 kts | 55° |
| 2026-04-23 16:06 | -34.46683 | -178.22629 | 31200 ft | 565 kts | 55° |
| 2026-04-23 16:07 | -34.43208 | -178.14088 | 31196 ft | 567 kts | 56° |
| 2026-04-23 16:07 | -34.39716 | -178.05527 | 31208 ft | 567 kts | 55° |
| 2026-04-23 16:08 | -34.36234 | -177.97005 | 31192 ft | 564 kts | 55° |
| 2026-04-23 16:08 | -34.32732 | -177.88470 | 31201 ft | 569 kts | 55° |
| 2026-04-23 16:09 | -34.29203 | -177.79883 | 31210 ft | 570 kts | 55° |
| 2026-04-23 16:09 | -34.25678 | -177.71326 | 31202 ft | 569 kts | 55° |
| 2026-04-23 16:10 | -34.22144 | -177.62773 | 31212 ft | 572 kts | 55° |
| 2026-04-23 16:10 | -34.18607 | -177.54227 | 31208 ft | 570 kts | 55° |
| 2026-04-23 16:11 | -34.15050 | -177.45664 | 31225 ft | 574 kts | 55° |
| 2026-04-23 16:11 | -34.11489 | -177.37100 | 31210 ft | 567 kts | 55° |
| 2026-04-23 16:12 | -34.07934 | -177.28587 | 31183 ft | 573 kts | 54° |
| 2026-04-23 16:12 | -34.04339 | -177.19989 | 31189 ft | 572 kts | 54° |
| 2026-04-23 16:13 | -34.00762 | -177.11462 | 31195 ft | 574 kts | 54° |
| 2026-04-23 16:13 | -33.95348 | -176.98587 | 31192 ft | 572 kts | 54° |
| 2026-04-23 16:14 | -33.91750 | -176.90060 | 31200 ft | 573 kts | 54° |
| 2026-04-23 16:14 | -33.88127 | -176.81497 | 31205 ft | 572 kts | 54° |
| 2026-04-23 16:15 | -33.84531 | -176.73015 | 31211 ft | 573 kts | 54° |
| 2026-04-23 16:15 | -33.80903 | -176.64482 | 31212 ft | 573 kts | 54° |
| 2026-04-23 16:16 | -33.77258 | -176.55931 | 31208 ft | 576 kts | 54° |
| 2026-04-23 16:16 | -33.73617 | -176.47406 | 31212 ft | 573 kts | 54° |
| 2026-04-23 16:17 | -33.69957 | -176.38860 | 31215 ft | 575 kts | 54° |
| 2026-04-23 16:17 | -33.66317 | -176.30379 | 31189 ft | 574 kts | 53° |
| 2026-04-23 16:18 | -33.62675 | -176.21916 | 31189 ft | 574 kts | 54° |
| 2026-04-23 16:18 | -33.59005 | -176.13414 | 31192 ft | 576 kts | 54° |
| 2026-04-23 16:19 | -33.55319 | -176.04884 | 31197 ft | 572 kts | 54° |
| 2026-04-23 16:19 | -33.51658 | -175.96443 | 31197 ft | 576 kts | 54° |
| 2026-04-23 16:20 | -33.47958 | -175.87929 | 31195 ft | 575 kts | 54° |
| 2026-04-23 16:20 | -33.44274 | -175.79468 | 31202 ft | 574 kts | 54° |
| 2026-04-23 16:21 | -33.40565 | -175.70976 | 31197 ft | 574 kts | 54° |
| 2026-04-23 16:21 | -33.36887 | -175.62573 | 31191 ft | 575 kts | 54° |
| 2026-04-23 16:22 | -33.33149 | -175.54056 | 31188 ft | 578 kts | 54° |
| 2026-04-23 16:22 | -33.29422 | -175.45581 | 31195 ft | 577 kts | 54° |
| 2026-04-23 16:23 | -33.25700 | -175.37137 | 31193 ft | 576 kts | 54° |
| 2026-04-23 16:23 | -33.21963 | -175.28680 | 31171 ft | 576 kts | 53° |
| 2026-04-23 16:24 | -33.18227 | -175.20245 | 31167 ft | 573 kts | 53° |
| 2026-04-23 16:24 | -33.14497 | -175.11847 | 31172 ft | 575 kts | 53° |
| 2026-04-23 16:25 | -33.10726 | -175.03377 | 31175 ft | 577 kts | 54° |
| 2026-04-23 16:25 | -33.06971 | -174.94955 | 31176 ft | 575 kts | 54° |
| 2026-04-23 16:26 | -33.03230 | -174.86586 | 31178 ft | 573 kts | 53° |
| 2026-04-23 16:26 | -32.99478 | -174.78217 | 31181 ft | 577 kts | 54° |
| 2026-04-23 16:27 | -32.95700 | -174.69804 | 31181 ft | 575 kts | 53° |
| 2026-04-23 16:27 | -32.91909 | -174.61385 | 31183 ft | 577 kts | 54° |
| 2026-04-23 16:28 | -32.88128 | -174.53008 | 31189 ft | 577 kts | 54° |
| 2026-04-23 16:28 | -32.84335 | -174.44618 | 31193 ft | 574 kts | 53° |
| 2026-04-23 16:29 | -32.80558 | -174.36289 | 31197 ft | 577 kts | 54° |
| 2026-04-23 16:29 | -32.76746 | -174.27899 | 31171 ft | 575 kts | 53° |
| 2026-04-23 16:30 | -32.72942 | -174.19550 | 31169 ft | 577 kts | 53° |
| 2026-04-23 16:30 | -32.69124 | -174.11188 | 31177 ft | 578 kts | 53° |
| 2026-04-23 16:31 | -32.65299 | -174.02826 | 31178 ft | 576 kts | 53° |
| 2026-04-23 16:31 | -32.61484 | -173.94508 | 31178 ft | 576 kts | 53° |
| 2026-04-23 16:32 | -32.57649 | -173.86165 | 31181 ft | 573 kts | 53° |
| 2026-04-23 16:32 | -32.53814 | -173.77847 | 31179 ft | 578 kts | 53° |
| 2026-04-23 16:33 | -32.49976 | -173.69533 | 31180 ft | 575 kts | 53° |
| 2026-04-23 16:33 | -32.46154 | -173.61273 | 31185 ft | 574 kts | 53° |
| 2026-04-23 16:34 | -32.42296 | -173.52962 | 31180 ft | 577 kts | 54° |
| 2026-04-23 16:34 | -32.38428 | -173.44641 | 31177 ft | 575 kts | 54° |
| 2026-04-23 16:35 | -32.34576 | -173.36374 | 31181 ft | 574 kts | 53° |
| 2026-04-23 16:35 | -32.30733 | -173.28148 | 31155 ft | 577 kts | 53° |
| 2026-04-23 16:36 | -32.26849 | -173.19849 | 31142 ft | 574 kts | 53° |
| 2026-04-23 16:36 | -32.22989 | -173.11621 | 31143 ft | 573 kts | 53° |
| 2026-04-23 16:37 | -32.19115 | -173.03383 | 31148 ft | 575 kts | 53° |
| 2026-04-23 16:37 | -32.15240 | -172.95161 | 31145 ft | 574 kts | 53° |
| 2026-04-23 16:38 | -32.11362 | -172.86951 | 31143 ft | 575 kts | 53° |
| 2026-04-23 16:38 | -32.07466 | -172.78722 | 31150 ft | 577 kts | 53° |
| 2026-04-23 16:39 | -32.03544 | -172.70451 | 31149 ft | 574 kts | 53° |
| 2026-04-23 16:39 | -31.99643 | -172.62250 | 31154 ft | 577 kts | 53° |
| 2026-04-23 16:40 | -31.95725 | -172.54025 | 31155 ft | 573 kts | 53° |
| 2026-04-23 16:40 | -31.91824 | -172.45859 | 31163 ft | 578 kts | 53° |
| 2026-04-23 16:41 | -31.87872 | -172.37601 | 31168 ft | 576 kts | 53° |
| 2026-04-23 16:41 | -31.83971 | -172.29465 | 31139 ft | 574 kts | 52° |
| 2026-04-23 16:42 | -31.80040 | -172.21289 | 31147 ft | 575 kts | 52° |
| 2026-04-23 16:42 | -31.76108 | -172.13126 | 31149 ft | 573 kts | 52° |
| 2026-04-23 16:43 | -31.72160 | -172.04950 | 31148 ft | 574 kts | 52° |
| 2026-04-23 16:43 | -31.68230 | -171.96831 | 31152 ft | 577 kts | 53° |
| 2026-04-23 16:44 | -31.64269 | -171.88658 | 31149 ft | 575 kts | 53° |
| 2026-04-23 16:44 | -31.60300 | -171.80489 | 31154 ft | 574 kts | 52° |
| 2026-04-23 16:45 | -31.56334 | -171.72350 | 31154 ft | 578 kts | 53° |
| 2026-04-23 16:45 | -31.52370 | -171.64226 | 31157 ft | 575 kts | 52° |
| 2026-04-23 16:46 | -31.48406 | -171.56117 | 31159 ft | 572 kts | 53° |
| 2026-04-23 16:46 | -31.44431 | -171.48015 | 31163 ft | 578 kts | 53° |
| 2026-04-23 16:47 | -31.40446 | -171.39894 | 31158 ft | 573 kts | 53° |
| 2026-04-23 16:47 | -31.36457 | -171.31795 | 31131 ft | 575 kts | 52° |
| 2026-04-23 16:48 | -31.32460 | -171.23689 | 31128 ft | 574 kts | 52° |
| 2026-04-23 16:48 | -31.28458 | -171.15596 | 31138 ft | 577 kts | 52° |
| 2026-04-23 16:49 | -31.24450 | -171.07504 | 31131 ft | 574 kts | 52° |
| 2026-04-23 16:49 | -31.20447 | -170.99438 | 31139 ft | 575 kts | 52° |
| 2026-04-23 16:50 | -31.16434 | -170.91374 | 31137 ft | 576 kts | 52° |
| 2026-04-23 16:50 | -31.12419 | -170.83319 | 31142 ft | 575 kts | 52° |
| 2026-04-23 16:51 | -31.08409 | -170.75291 | 31142 ft | 575 kts | 52° |
| 2026-04-23 16:51 | -31.04366 | -170.67218 | 31143 ft | 576 kts | 53° |
| 2026-04-23 16:52 | -31.00347 | -170.59203 | 31150 ft | 572 kts | 53° |
| 2026-04-23 16:52 | -30.96288 | -170.51134 | 31148 ft | 577 kts | 53° |
| 2026-04-23 16:53 | -30.92248 | -170.43108 | 31152 ft | 575 kts | 52° |
| 2026-04-23 16:53 | -30.88206 | -170.35100 | 31154 ft | 572 kts | 53° |
| 2026-04-23 16:54 | -30.84172 | -170.27129 | 31134 ft | 577 kts | 52° |
| 2026-04-23 16:54 | -30.80091 | -170.19075 | 31133 ft | 574 kts | 52° |
| 2026-04-23 16:55 | -30.76032 | -170.11085 | 31132 ft | 577 kts | 52° |
| 2026-04-23 16:55 | -30.71973 | -170.03108 | 31131 ft | 573 kts | 51° |
| 2026-04-23 16:56 | -30.67353 | -169.95752 | 31135 ft | 560 kts | 43° |
| 2026-04-23 16:56 | -30.62447 | -169.88654 | 31137 ft | 562 kts | 43° |
| 2026-04-23 16:57 | -30.57558 | -169.81622 | 31138 ft | 564 kts | 43° |
| 2026-04-23 16:57 | -30.52629 | -169.74551 | 31139 ft | 561 kts | 43° |
| 2026-04-23 16:58 | -30.47711 | -169.67517 | 31138 ft | 561 kts | 43° |
| 2026-04-23 16:58 | -30.42760 | -169.60454 | 31143 ft | 561 kts | 43° |
| 2026-04-23 16:59 | -30.37841 | -169.53451 | 31136 ft | 563 kts | 43° |
| 2026-04-23 16:59 | -30.32916 | -169.46449 | 31139 ft | 558 kts | 43° |
| 2026-04-23 17:00 | -30.28001 | -169.39482 | 31143 ft | 563 kts | 43° |
| 2026-04-23 17:00 | -30.23059 | -169.32483 | 31119 ft | 561 kts | 42° |
| 2026-04-23 17:01 | -30.18113 | -169.25494 | 31121 ft | 560 kts | 42° |
| 2026-04-23 17:01 | -30.13205 | -169.18570 | 31121 ft | 562 kts | 42° |
| 2026-04-23 17:02 | -30.08226 | -169.11559 | 31118 ft | 560 kts | 42° |
| 2026-04-23 17:02 | -30.03286 | -169.04614 | 31115 ft | 563 kts | 43° |
| 2026-04-23 17:03 | -29.98297 | -168.97675 | 31111 ft | 559 kts | 40° |
| 2026-04-23 17:03 | -29.93157 | -168.91022 | 31115 ft | 555 kts | 40° |
| 2026-04-23 17:04 | -29.88020 | -168.84399 | 31117 ft | 558 kts | 40° |
| 2026-04-23 17:04 | -29.82877 | -168.77762 | 31117 ft | 554 kts | 40° |
| 2026-04-23 17:05 | -29.77728 | -168.71123 | 31115 ft | 558 kts | 40° |
| 2026-04-23 17:05 | -29.72550 | -168.64450 | 31116 ft | 554 kts | 40° |
| 2026-04-23 17:06 | -29.67450 | -168.57883 | 31116 ft | 552 kts | 40° |
| 2026-04-23 17:06 | -29.62307 | -168.51276 | 31119 ft | 556 kts | 41° |
| 2026-04-23 17:07 | -29.57160 | -168.44669 | 31119 ft | 554 kts | 41° |
| 2026-04-23 17:07 | -29.52044 | -168.38110 | 31116 ft | 549 kts | 40° |
| 2026-04-23 17:08 | -29.46934 | -168.31576 | 31093 ft | 553 kts | 40° |
| 2026-04-23 17:08 | -29.41824 | -168.25047 | 31093 ft | 551 kts | 40° |
| 2026-04-23 17:09 | -29.36690 | -168.18501 | 31092 ft | 551 kts | 40° |
| 2026-04-23 17:09 | -29.31587 | -168.12004 | 31092 ft | 549 kts | 40° |
| 2026-04-23 17:10 | -29.26476 | -168.05505 | 31094 ft | 548 kts | 40° |
| 2026-04-23 17:10 | -29.21342 | -167.98993 | 31093 ft | 549 kts | 40° |
| 2026-04-23 17:11 | -29.16260 | -167.92552 | 31099 ft | 548 kts | 40° |
| 2026-04-23 17:11 | -29.11214 | -167.86171 | 31096 ft | 548 kts | 40° |
| 2026-04-23 17:12 | -29.06115 | -167.79729 | 31098 ft | 546 kts | 40° |
| 2026-04-23 17:12 | -29.01000 | -167.73280 | 31101 ft | 548 kts | 40° |
| 2026-04-23 17:13 | -28.95894 | -167.66850 | 31105 ft | 545 kts | 40° |
| 2026-04-23 17:13 | -28.90811 | -167.60461 | 31103 ft | 547 kts | 41° |
| 2026-04-23 17:14 | -28.85681 | -167.54024 | 31105 ft | 547 kts | 40° |
| 2026-04-23 17:14 | -28.80588 | -167.47639 | 31108 ft | 544 kts | 40° |
| 2026-04-23 17:15 | -28.75467 | -167.41235 | 31107 ft | 548 kts | 40° |
| 2026-04-23 17:15 | -28.70352 | -167.34845 | 31108 ft | 545 kts | 40° |
| 2026-04-23 17:16 | -28.65257 | -167.28490 | 31091 ft | 546 kts | 40° |
| 2026-04-23 17:16 | -28.60148 | -167.22128 | 31088 ft | 545 kts | 40° |
| 2026-04-23 17:17 | -28.55033 | -167.15768 | 31093 ft | 544 kts | 40° |
| 2026-04-23 17:17 | -28.49920 | -167.09422 | 31095 ft | 544 kts | 40° |
| 2026-04-23 17:18 | -28.42249 | -166.99918 | 31097 ft | 545 kts | 40° |
| 2026-04-23 17:19 | -28.37136 | -166.93593 | 31096 ft | 541 kts | 40° |
| 2026-04-23 17:19 | -28.32052 | -166.87315 | 31098 ft | 543 kts | 40° |
| 2026-04-23 17:20 | -28.26938 | -166.81014 | 31099 ft | 545 kts | 40° |
| 2026-04-23 17:21 | -28.16682 | -166.68399 | 31102 ft | 546 kts | 40° |
| 2026-04-23 17:21 | -28.08991 | -166.58962 | 31106 ft | 542 kts | 41° |
| 2026-04-23 17:22 | -28.01333 | -166.49588 | 31106 ft | 542 kts | 40° |
| 2026-04-23 17:23 | -27.93668 | -166.40227 | 31110 ft | 541 kts | 40° |
| 2026-04-23 17:24 | -27.86004 | -166.30888 | 31091 ft | 538 kts | 40° |
| 2026-04-23 17:24 | -27.78322 | -166.21552 | 31091 ft | 542 kts | 41° |
| 2026-04-23 17:25 | -27.70686 | -166.12283 | 31095 ft | 536 kts | 40° |
| 2026-04-23 17:26 | -27.60497 | -165.99960 | 31095 ft | 539 kts | 41° |
| 2026-04-23 17:27 | -27.52897 | -165.90785 | 31097 ft | 536 kts | 40° |
| 2026-04-23 17:27 | -27.47761 | -165.84601 | 31095 ft | 538 kts | 41° |
| 2026-04-23 17:28 | -27.42670 | -165.78474 | 31093 ft | 536 kts | 41° |
| 2026-04-23 17:28 | -27.37583 | -165.72366 | 31096 ft | 539 kts | 41° |
| 2026-04-23 17:29 | -27.32480 | -165.66243 | 31094 ft | 535 kts | 41° |
| 2026-04-23 17:30 | -27.25693 | -165.58116 | 31094 ft | 537 kts | 41° |
| 2026-04-23 17:30 | -27.17179 | -165.47945 | 31094 ft | 536 kts | 41° |
| 2026-04-23 17:31 | -27.12081 | -165.41864 | 31094 ft | 536 kts | 41° |
| 2026-04-23 17:31 | -27.06951 | -165.35754 | 31095 ft | 536 kts | 41° |
| 2026-04-23 17:32 | -27.01865 | -165.29704 | 31074 ft | 532 kts | 41° |
| 2026-04-23 17:32 | -26.96772 | -165.23659 | 31074 ft | 537 kts | 41° |
| 2026-04-23 17:33 | -26.91664 | -165.17600 | 31073 ft | 532 kts | 41° |
| 2026-04-23 17:33 | -26.86585 | -165.11589 | 31070 ft | 537 kts | 41° |
| 2026-04-23 17:34 | -26.81448 | -165.05513 | 31074 ft | 534 kts | 41° |
| 2026-04-23 17:35 | -26.73546 | -164.96819 | 31202 ft | 535 kts | 36° |
| 2026-04-23 17:35 | -26.67983 | -164.91322 | 32037 ft | 530 kts | 36° |
| 2026-04-23 17:35 | -26.65231 | -164.88609 | 32504 ft | 527 kts | 36° |
| 2026-04-23 17:36 | -26.62490 | -164.85907 | 32965 ft | 524 kts | 36° |
| 2026-04-23 17:36 | -26.59712 | -164.83174 | 33071 ft | 527 kts | 36° |
| 2026-04-23 17:36 | -26.54179 | -164.77736 | 33074 ft | 526 kts | 36° |
| 2026-04-23 17:37 | -26.48671 | -164.72327 | 33075 ft | 527 kts | 36° |
| 2026-04-23 17:38 | -26.40395 | -164.64215 | 33076 ft | 525 kts | 36° |
| 2026-04-23 17:38 | -26.34956 | -164.58891 | 33076 ft | 521 kts | 36° |
| 2026-04-23 17:39 | -26.29447 | -164.53510 | 33075 ft | 525 kts | 36° |
| 2026-04-23 17:39 | -26.23994 | -164.48187 | 33075 ft | 522 kts | 36° |
| 2026-04-23 17:40 | -26.18608 | -164.42937 | 33072 ft | 519 kts | 36° |
| 2026-04-23 17:40 | -26.13170 | -164.37645 | 33075 ft | 524 kts | 36° |
| 2026-04-23 17:41 | -26.07643 | -164.32271 | 33058 ft | 521 kts | 36° |
| 2026-04-23 17:41 | -25.99448 | -164.24316 | 33054 ft | 520 kts | 36° |
| 2026-04-23 17:42 | -25.91257 | -164.16382 | 33053 ft | 520 kts | 36° |
| 2026-04-23 17:43 | -25.85765 | -164.11069 | 33054 ft | 520 kts | 36° |
| 2026-04-23 17:43 | -25.80314 | -164.05803 | 33053 ft | 518 kts | 36° |
| 2026-04-23 17:44 | -25.74883 | -164.00563 | 33053 ft | 517 kts | 37° |
| 2026-04-23 17:44 | -25.66708 | -163.92688 | 33056 ft | 515 kts | 36° |
| 2026-04-23 17:45 | -25.58568 | -163.84863 | 33056 ft | 516 kts | 37° |
| 2026-04-23 17:46 | -25.50384 | -163.77010 | 33057 ft | 516 kts | 37° |
| 2026-04-23 17:46 | -25.44930 | -163.71785 | 33057 ft | 518 kts | 37° |
| 2026-04-23 17:47 | -25.39497 | -163.66585 | 33060 ft | 514 kts | 37° |
| 2026-04-23 17:48 | -25.31345 | -163.58795 | 33062 ft | 514 kts | 37° |
| 2026-04-23 17:48 | -25.25879 | -163.53581 | 33060 ft | 517 kts | 37° |
| 2026-04-23 17:49 | -25.20428 | -163.48387 | 33059 ft | 514 kts | 37° |
| 2026-04-23 17:49 | -25.15014 | -163.43234 | 33061 ft | 512 kts | 37° |
| 2026-04-23 17:50 | -25.09605 | -163.38094 | 33060 ft | 515 kts | 37° |
| 2026-04-23 17:50 | -25.01452 | -163.30356 | 33050 ft | 512 kts | 37° |
| 2026-04-23 17:51 | -24.96026 | -163.25214 | 33054 ft | 511 kts | 37° |
| 2026-04-23 17:52 | -24.87870 | -163.17497 | 33050 ft | 514 kts | 37° |
| 2026-04-23 17:52 | -24.79737 | -163.09816 | 33053 ft | 514 kts | 37° |
| 2026-04-23 17:53 | -24.71563 | -163.02109 | 33054 ft | 514 kts | 37° |
| 2026-04-23 17:54 | -24.66109 | -162.96974 | 33054 ft | 514 kts | 37° |
| 2026-04-23 17:54 | -24.57958 | -162.89313 | 33055 ft | 514 kts | 37° |
| 2026-04-23 17:55 | -24.49760 | -162.81621 | 33052 ft | 514 kts | 38° |
| 2026-04-23 17:56 | -24.44290 | -162.76497 | 33054 ft | 516 kts | 38° |
| 2026-04-23 17:56 | -24.36118 | -162.68851 | 33058 ft | 514 kts | 38° |
| 2026-04-23 17:57 | -24.30681 | -162.63773 | 33056 ft | 514 kts | 38° |
| 2026-04-23 17:58 | -24.22476 | -162.56119 | 33057 ft | 515 kts | 38° |
| 2026-04-23 17:58 | -24.17003 | -162.51021 | 33058 ft | 517 kts | 38° |
| 2026-04-23 17:59 | -24.11510 | -162.45909 | 33059 ft | 514 kts | 37° |
| 2026-04-23 17:59 | -24.06037 | -162.40823 | 33058 ft | 514 kts | 38° |
| 2026-04-23 18:00 | -24.00574 | -162.35753 | 33061 ft | 516 kts | 38° |
| 2026-04-23 18:00 | -23.95083 | -162.30662 | 33051 ft | 515 kts | 37° |
| 2026-04-23 18:01 | -23.89625 | -162.25609 | 33050 ft | 515 kts | 37° |
| 2026-04-23 18:01 | -23.84142 | -162.20537 | 33051 ft | 513 kts | 38° |
| 2026-04-23 18:02 | -23.79594 | -162.16334 | 33047 ft | 514 kts | 38° |
| 2026-04-23 18:02 | -23.73240 | -162.10469 | 33057 ft | 514 kts | 38° |
| 2026-04-23 18:03 | -23.67742 | -162.05402 | 33062 ft | 517 kts | 38° |
| 2026-04-23 18:03 | -23.62264 | -162.00357 | 33068 ft | 514 kts | 38° |
| 2026-04-23 18:04 | -23.56777 | -161.95311 | 33064 ft | 516 kts | 38° |
| 2026-04-23 18:04 | -23.51273 | -161.90254 | 33064 ft | 515 kts | 38° |
| 2026-04-23 18:05 | -23.45796 | -161.85228 | 33069 ft | 515 kts | 38° |
| 2026-04-23 18:05 | -23.40305 | -161.80196 | 33068 ft | 515 kts | 38° |
| 2026-04-23 18:06 | -23.34820 | -161.75174 | 33066 ft | 515 kts | 38° |
| 2026-04-23 18:06 | -23.29368 | -161.70187 | 33066 ft | 514 kts | 38° |
| 2026-04-23 18:07 | -23.23872 | -161.65166 | 33067 ft | 512 kts | 38° |
| 2026-04-23 18:07 | -23.18400 | -161.60173 | 33066 ft | 515 kts | 38° |
| 2026-04-23 18:08 | -23.13843 | -161.56018 | 33066 ft | 514 kts | 38° |
| 2026-04-23 18:08 | -23.07464 | -161.50211 | 33068 ft | 512 kts | 38° |
| 2026-04-23 18:09 | -23.01976 | -161.45218 | 33062 ft | 512 kts | 38° |
| 2026-04-23 18:09 | -22.96524 | -161.40265 | 33060 ft | 512 kts | 38° |
| 2026-04-23 18:10 | -22.91051 | -161.35298 | 33054 ft | 511 kts | 38° |
| 2026-04-23 18:10 | -22.85561 | -161.30321 | 33050 ft | 511 kts | 38° |
| 2026-04-23 18:11 | -22.80116 | -161.25391 | 33042 ft | 509 kts | 38° |
| 2026-04-23 18:11 | -22.74659 | -161.20454 | 33047 ft | 510 kts | 38° |
| 2026-04-23 18:12 | -22.69203 | -161.15523 | 33047 ft | 511 kts | 38° |
| 2026-04-23 18:12 | -22.63754 | -161.10605 | 33052 ft | 509 kts | 38° |
| 2026-04-23 18:13 | -22.58329 | -161.05713 | 33047 ft | 508 kts | 38° |
| 2026-04-23 18:13 | -22.52873 | -161.00800 | 33046 ft | 508 kts | 38° |
| 2026-04-23 18:14 | -22.47411 | -160.95883 | 33042 ft | 509 kts | 38° |
| 2026-04-23 18:14 | -22.41982 | -160.91005 | 33042 ft | 507 kts | 38° |
| 2026-04-23 18:15 | -22.36553 | -160.86130 | 33045 ft | 507 kts | 38° |
| 2026-04-23 18:15 | -22.31091 | -160.81230 | 33043 ft | 506 kts | 38° |
| 2026-04-23 18:16 | -22.25680 | -160.76382 | 33040 ft | 505 kts | 38° |
| 2026-04-23 18:16 | -22.20240 | -160.71513 | 33037 ft | 504 kts | 39° |
| 2026-04-23 18:17 | -22.12090 | -160.64229 | 33035 ft | 503 kts | 39° |
| 2026-04-23 18:17 | -22.06693 | -160.59390 | 33043 ft | 503 kts | 39° |
| 2026-04-23 18:18 | -22.01334 | -160.54521 | 33039 ft | 502 kts | 39° |
| 2026-04-23 18:18 | -21.95969 | -160.49654 | 33035 ft | 504 kts | 39° |
| 2026-04-23 18:19 | -21.90582 | -160.44771 | 33040 ft | 503 kts | 39° |
| 2026-04-23 18:19 | -21.85239 | -160.39937 | 33040 ft | 502 kts | 39° |
| 2026-04-23 18:20 | -21.79883 | -160.35095 | 33038 ft | 502 kts | 39° |
| 2026-04-23 18:20 | -21.74514 | -160.30247 | 33031 ft | 501 kts | 39° |
| 2026-04-23 18:21 | -21.69176 | -160.25432 | 33032 ft | 502 kts | 39° |
| 2026-04-23 18:21 | -21.63814 | -160.20601 | 33035 ft | 501 kts | 39° |
| 2026-04-23 18:22 | -21.58443 | -160.15765 | 33032 ft | 501 kts | 39° |
| 2026-04-23 18:22 | -21.53119 | -160.10977 | 33033 ft | 501 kts | 39° |
| 2026-04-23 18:23 | -21.45089 | -160.03766 | 33033 ft | 501 kts | 39° |
| 2026-04-23 18:24 | -21.37034 | -159.96542 | 33035 ft | 500 kts | 39° |
| 2026-04-23 18:25 | -21.29018 | -159.89363 | 33039 ft | 501 kts | 39° |
| 2026-04-23 18:25 | -21.23638 | -159.84552 | 33042 ft | 500 kts | 39° |
| 2026-04-23 18:26 | -21.18150 | -159.79936 | 33050 ft | 501 kts | 35° |
| 2026-04-23 18:26 | -21.12404 | -159.75656 | 33042 ft | 501 kts | 34° |
| 2026-04-23 18:27 | -21.06687 | -159.71408 | 33041 ft | 500 kts | 34° |
| 2026-04-23 18:27 | -21.00935 | -159.67137 | 33041 ft | 500 kts | 34° |
| 2026-04-23 18:28 | -20.95203 | -159.62883 | 33038 ft | 500 kts | 35° |
| 2026-04-23 18:28 | -20.89501 | -159.58653 | 33038 ft | 501 kts | 35° |
| 2026-04-23 18:29 | -20.83779 | -159.54413 | 33034 ft | 500 kts | 35° |
| 2026-04-23 18:29 | -20.78054 | -159.50176 | 33034 ft | 500 kts | 35° |
| 2026-04-23 18:30 | -20.72326 | -159.45938 | 33034 ft | 501 kts | 35° |
| 2026-04-23 18:30 | -20.66541 | -159.41664 | 33035 ft | 501 kts | 35° |
| 2026-04-23 18:31 | -20.60808 | -159.37431 | 33035 ft | 501 kts | 35° |
| 2026-04-23 18:31 | -20.55079 | -159.33206 | 33032 ft | 501 kts | 34° |
| 2026-04-23 18:32 | -20.49337 | -159.28975 | 33033 ft | 500 kts | 35° |
| 2026-04-23 18:32 | -20.43596 | -159.24748 | 33033 ft | 501 kts | 35° |
| 2026-04-23 18:33 | -20.37855 | -159.20525 | 33034 ft | 501 kts | 35° |
| 2026-04-23 18:33 | -20.32128 | -159.16316 | 33034 ft | 502 kts | 35° |
| 2026-04-23 18:34 | -20.26379 | -159.12096 | 33034 ft | 502 kts | 35° |
| 2026-04-23 18:34 | -20.20619 | -159.07808 | 33036 ft | 502 kts | 37° |
| 2026-04-23 18:35 | -20.14975 | -159.03409 | 33035 ft | 501 kts | 37° |
| 2026-04-23 18:35 | -20.09353 | -158.99034 | 33036 ft | 502 kts | 37° |
| 2026-04-23 18:36 | -20.03676 | -158.94629 | 33035 ft | 502 kts | 37° |
| 2026-04-23 18:36 | -19.98089 | -158.90302 | 33038 ft | 502 kts | 37° |
| 2026-04-23 18:37 | -19.92442 | -158.85933 | 33041 ft | 502 kts | 37° |
| 2026-04-23 18:37 | -19.86770 | -158.81549 | 33031 ft | 502 kts | 37° |
| 2026-04-23 18:38 | -19.81103 | -158.77176 | 33035 ft | 501 kts | 37° |
| 2026-04-23 18:38 | -19.75442 | -158.72810 | 33035 ft | 501 kts | 37° |
| 2026-04-23 18:39 | -19.69780 | -158.68448 | 33033 ft | 501 kts | 37° |
| 2026-04-23 18:39 | -19.64087 | -158.64066 | 33036 ft | 502 kts | 37° |
| 2026-04-23 18:40 | -19.58431 | -158.59717 | 33035 ft | 501 kts | 37° |
| 2026-04-23 18:40 | -19.52784 | -158.55379 | 33035 ft | 501 kts | 37° |
| 2026-04-23 18:41 | -19.47119 | -158.51028 | 33035 ft | 501 kts | 37° |
| 2026-04-23 18:41 | -19.41448 | -158.46680 | 33037 ft | 501 kts | 37° |
| 2026-04-23 18:42 | -19.35794 | -158.42346 | 33034 ft | 500 kts | 37° |
| 2026-04-23 18:42 | -19.30139 | -158.38017 | 33037 ft | 500 kts | 37° |
| 2026-04-23 18:43 | -19.24453 | -158.33667 | 33034 ft | 500 kts | 37° |
| 2026-04-23 18:43 | -19.18813 | -158.29358 | 33037 ft | 500 kts | 37° |
| 2026-04-23 18:44 | -19.13138 | -158.25023 | 33034 ft | 499 kts | 37° |
| 2026-04-23 18:44 | -19.07462 | -158.20692 | 33037 ft | 500 kts | 37° |
| 2026-04-23 18:45 | -19.01813 | -158.16386 | 33038 ft | 500 kts | 37° |
| 2026-04-23 18:45 | -18.96156 | -158.12077 | 33039 ft | 500 kts | 37° |
| 2026-04-23 18:46 | -18.90515 | -158.07785 | 33037 ft | 500 kts | 37° |
| 2026-04-23 18:46 | -18.84836 | -158.03467 | 33033 ft | 499 kts | 37° |
| 2026-04-23 18:47 | -18.79232 | -157.99210 | 33032 ft | 498 kts | 37° |
| 2026-04-23 18:47 | -18.73522 | -157.94875 | 33032 ft | 498 kts | 37° |
| 2026-04-23 18:48 | -18.67900 | -157.90611 | 33031 ft | 499 kts | 37° |
| 2026-04-23 18:48 | -18.62214 | -157.86302 | 33029 ft | 498 kts | 37° |
| 2026-04-23 18:49 | -18.56531 | -157.81999 | 33023 ft | 498 kts | 37° |
| 2026-04-23 18:49 | -18.50886 | -157.77728 | 33025 ft | 498 kts | 37° |
| 2026-04-23 18:50 | -18.46132 | -157.74135 | 33024 ft | 498 kts | 37° |
| 2026-04-23 18:50 | -18.39549 | -157.69162 | 33021 ft | 498 kts | 37° |
| 2026-04-23 18:51 | -18.33903 | -157.64902 | 33023 ft | 498 kts | 37° |
| 2026-04-23 18:51 | -18.28288 | -157.60667 | 33020 ft | 497 kts | 37° |
| 2026-04-23 18:52 | -18.22657 | -157.56426 | 33018 ft | 497 kts | 37° |
| 2026-04-23 18:52 | -18.17012 | -157.52176 | 33016 ft | 497 kts | 37° |
| 2026-04-23 18:53 | -18.11363 | -157.47926 | 33016 ft | 497 kts | 37° |
| 2026-04-23 18:53 | -18.05733 | -157.43695 | 33016 ft | 498 kts | 37° |
| 2026-04-23 18:54 | -18.00093 | -157.39459 | 33016 ft | 498 kts | 37° |
| 2026-04-23 18:54 | -17.94387 | -157.35178 | 33016 ft | 496 kts | 37° |
| 2026-04-23 18:55 | -17.88743 | -157.30946 | 33012 ft | 496 kts | 36° |
| 2026-04-23 18:55 | -17.83067 | -157.26694 | 33011 ft | 497 kts | 36° |
| 2026-04-23 18:56 | -17.78354 | -157.23164 | 33011 ft | 497 kts | 36° |
| 2026-04-23 18:56 | -17.72056 | -157.18454 | 33012 ft | 496 kts | 36° |
| 2026-04-23 18:57 | -17.66361 | -157.14197 | 33012 ft | 496 kts | 36° |
| 2026-04-23 18:57 | -17.60726 | -157.09988 | 33012 ft | 497 kts | 36° |
| 2026-04-23 18:58 | -17.55065 | -157.05765 | 33012 ft | 497 kts | 36° |
| 2026-04-23 18:58 | -17.49427 | -157.01579 | 33007 ft | 496 kts | 34° |
| 2026-04-23 18:59 | -17.43195 | -156.98337 | 33018 ft | 497 kts | 22° |
| 2026-04-23 18:59 | -17.36733 | -156.95671 | 33013 ft | 496 kts | 22° |
| 2026-04-23 19:00 | -17.30300 | -156.93031 | 33014 ft | 496 kts | 22° |
| 2026-04-23 19:00 | -17.23831 | -156.90382 | 33014 ft | 497 kts | 22° |
| 2026-04-23 19:01 | -17.17387 | -156.87747 | 33014 ft | 497 kts | 22° |
| 2026-04-23 19:01 | -17.10908 | -156.85100 | 33014 ft | 497 kts | 22° |
| 2026-04-23 19:02 | -17.05555 | -156.82915 | 33015 ft | 498 kts | 22° |
| 2026-04-23 19:02 | -16.97973 | -156.79823 | 33015 ft | 497 kts | 22° |
| 2026-04-23 19:03 | -16.91512 | -156.77191 | 33016 ft | 497 kts | 22° |
| 2026-04-23 19:03 | -16.85067 | -156.74567 | 33011 ft | 496 kts | 22° |
| 2026-04-23 19:04 | -16.78617 | -156.71942 | 33012 ft | 496 kts | 22° |
| 2026-04-23 19:04 | -16.72177 | -156.69324 | 33012 ft | 496 kts | 22° |
| 2026-04-23 19:05 | -16.65716 | -156.66699 | 33012 ft | 497 kts | 22° |
| 2026-04-23 19:05 | -16.59286 | -156.64088 | 33012 ft | 496 kts | 22° |
| 2026-04-23 19:06 | -16.52825 | -156.61467 | 33012 ft | 495 kts | 22° |
| 2026-04-23 19:06 | -16.46384 | -156.58856 | 33013 ft | 495 kts | 22° |
| 2026-04-23 19:07 | -16.39931 | -156.56242 | 33013 ft | 495 kts | 22° |
| 2026-04-23 19:07 | -16.33497 | -156.53638 | 33013 ft | 495 kts | 22° |
| 2026-04-23 19:08 | -16.27059 | -156.51033 | 33013 ft | 494 kts | 22° |
| 2026-04-23 19:08 | -16.20631 | -156.48434 | 33014 ft | 496 kts | 22° |
| 2026-04-23 19:09 | -16.14174 | -156.45827 | 33014 ft | 496 kts | 22° |
| 2026-04-23 19:09 | -16.07770 | -156.43242 | 33014 ft | 494 kts | 22° |
| 2026-04-23 19:10 | -16.01328 | -156.40643 | 33014 ft | 493 kts | 23° |
| 2026-04-23 19:10 | -15.94943 | -156.38069 | 33013 ft | 494 kts | 22° |
| 2026-04-23 19:11 | -15.88500 | -156.35474 | 33007 ft | 494 kts | 23° |
| 2026-04-23 19:11 | -15.82084 | -156.32892 | 33005 ft | 494 kts | 22° |
| 2026-04-23 19:12 | -15.76718 | -156.30733 | 33006 ft | 495 kts | 22° |
| 2026-04-23 19:12 | -15.69229 | -156.27721 | 33002 ft | 495 kts | 22° |
| 2026-04-23 19:13 | -15.62766 | -156.25125 | 32998 ft | 496 kts | 23° |
| 2026-04-23 19:13 | -15.56319 | -156.22537 | 32992 ft | 496 kts | 23° |
| 2026-04-23 19:14 | -15.49810 | -156.19925 | 32986 ft | 497 kts | 23° |
| 2026-04-23 19:14 | -15.43377 | -156.17346 | 32990 ft | 496 kts | 23° |
| 2026-04-23 19:15 | -15.36897 | -156.14751 | 32994 ft | 497 kts | 23° |
| 2026-04-23 19:15 | -15.30422 | -156.12158 | 32995 ft | 496 kts | 23° |
| 2026-04-23 19:16 | -15.23934 | -156.09561 | 32995 ft | 497 kts | 23° |
| 2026-04-23 19:16 | -15.17467 | -156.06976 | 32995 ft | 497 kts | 23° |
| 2026-04-23 19:17 | -15.07741 | -156.03090 | 32995 ft | 496 kts | 23° |
| 2026-04-23 19:17 | -15.01262 | -156.00503 | 32998 ft | 496 kts | 23° |
| 2026-04-23 19:18 | -14.94825 | -155.97896 | 32995 ft | 498 kts | 24° |
| 2026-04-23 19:18 | -14.88316 | -155.95230 | 32988 ft | 499 kts | 24° |
| 2026-04-23 19:19 | -14.78647 | -155.91280 | 32990 ft | 498 kts | 24° |
| 2026-04-23 19:20 | -14.68957 | -155.87324 | 32982 ft | 497 kts | 24° |
| 2026-04-23 19:20 | -14.62512 | -155.84697 | 32979 ft | 496 kts | 24° |
| 2026-04-23 19:21 | -14.52860 | -155.80766 | 32977 ft | 497 kts | 24° |
| 2026-04-23 19:22 | -14.46391 | -155.78133 | 32982 ft | 497 kts | 24° |
| 2026-04-23 19:22 | -14.36728 | -155.74203 | 32979 ft | 497 kts | 24° |
| 2026-04-23 19:23 | -14.30271 | -155.71580 | 32983 ft | 497 kts | 24° |
| 2026-04-23 19:24 | -14.20570 | -155.67642 | 32988 ft | 497 kts | 24° |
| 2026-04-23 19:24 | -14.10889 | -155.63715 | 32992 ft | 497 kts | 25° |
| 2026-04-23 19:25 | -13.98024 | -155.58502 | 32990 ft | 496 kts | 25° |
| 2026-04-23 19:26 | -13.88334 | -155.54579 | 32980 ft | 497 kts | 25° |
| 2026-04-23 19:27 | -13.72200 | -155.48058 | 32971 ft | 496 kts | 25° |
| 2026-04-23 19:28 | -13.59300 | -155.42850 | 32959 ft | 497 kts | 25° |
| 2026-04-23 19:29 | -13.49643 | -155.38954 | 32958 ft | 496 kts | 25° |
| 2026-04-23 19:30 | -13.39976 | -155.35059 | 32962 ft | 497 kts | 25° |
| 2026-04-23 19:31 | -13.30288 | -155.31158 | 32975 ft | 496 kts | 25° |
| 2026-04-23 19:31 | -13.23835 | -155.28561 | 32974 ft | 497 kts | 25° |
| 2026-04-23 19:32 | -13.17386 | -155.25969 | 32976 ft | 497 kts | 25° |
| 2026-04-23 19:32 | -13.10946 | -155.23381 | 32974 ft | 496 kts | 25° |
| 2026-04-23 19:33 | -13.04472 | -155.20781 | 32976 ft | 496 kts | 25° |
| 2026-04-23 19:33 | -12.94843 | -155.16916 | 32978 ft | 495 kts | 25° |
| 2026-04-23 19:34 | -12.88385 | -155.14325 | 32968 ft | 496 kts | 25° |
| 2026-04-23 19:35 | -12.78722 | -155.10452 | 32968 ft | 495 kts | 25° |
| 2026-04-23 19:35 | -12.72287 | -155.07875 | 32968 ft | 496 kts | 25° |
| 2026-04-23 19:36 | -12.65815 | -155.05283 | 32967 ft | 497 kts | 25° |
| 2026-04-23 19:36 | -12.59389 | -155.02713 | 32971 ft | 495 kts | 25° |
| 2026-04-23 19:37 | -12.52934 | -155.00131 | 32970 ft | 496 kts | 25° |
| 2026-04-23 19:37 | -12.46502 | -154.97560 | 32970 ft | 494 kts | 25° |
| 2026-04-23 19:38 | -12.40074 | -154.94992 | 32967 ft | 495 kts | 25° |
| 2026-04-23 19:38 | -12.33623 | -154.92418 | 32973 ft | 495 kts | 25° |
| 2026-04-23 19:39 | -12.27183 | -154.89847 | 32971 ft | 495 kts | 25° |
| 2026-04-23 19:39 | -12.20739 | -154.87277 | 32972 ft | 496 kts | 25° |
| 2026-04-23 19:40 | -12.14306 | -154.84712 | 32972 ft | 495 kts | 25° |
| 2026-04-23 19:40 | -12.07879 | -154.82153 | 32973 ft | 495 kts | 25° |
| 2026-04-23 19:41 | -12.01431 | -154.79585 | 32972 ft | 495 kts | 25° |
| 2026-04-23 19:41 | -11.94994 | -154.77023 | 32971 ft | 494 kts | 25° |
| 2026-04-23 19:42 | -11.88596 | -154.74478 | 32966 ft | 494 kts | 25° |
| 2026-04-23 19:42 | -11.82277 | -154.71965 | 32969 ft | 492 kts | 26° |
| 2026-04-23 19:43 | -11.75885 | -154.69424 | 32965 ft | 493 kts | 26° |
| 2026-04-23 19:43 | -11.69472 | -154.66878 | 32967 ft | 491 kts | 25° |
| 2026-04-23 19:44 | -11.63099 | -154.64348 | 32966 ft | 491 kts | 25° |
| 2026-04-23 19:44 | -11.56693 | -154.61806 | 32967 ft | 490 kts | 25° |
| 2026-04-23 19:45 | -11.50304 | -154.59273 | 32966 ft | 490 kts | 25° |
| 2026-04-23 19:45 | -11.43928 | -154.56744 | 32967 ft | 489 kts | 25° |
| 2026-04-23 19:46 | -11.37526 | -154.54208 | 32965 ft | 490 kts | 25° |
| 2026-04-23 19:46 | -11.31166 | -154.51689 | 32966 ft | 489 kts | 25° |
| 2026-04-23 19:47 | -11.25861 | -154.49589 | 32963 ft | 489 kts | 25° |
| 2026-04-23 19:47 | -11.18420 | -154.46645 | 32958 ft | 488 kts | 25° |
| 2026-04-23 19:48 | -11.12094 | -154.44144 | 32955 ft | 487 kts | 25° |
| 2026-04-23 19:48 | -11.05759 | -154.41640 | 32954 ft | 487 kts | 25° |
| 2026-04-23 19:49 | -10.99442 | -154.39143 | 32952 ft | 486 kts | 25° |
| 2026-04-23 19:49 | -10.93099 | -154.36638 | 32951 ft | 485 kts | 25° |
| 2026-04-23 19:50 | -10.86794 | -154.34149 | 32952 ft | 486 kts | 25° |
| 2026-04-23 19:50 | -10.80477 | -154.31657 | 32953 ft | 485 kts | 25° |
| 2026-04-23 19:51 | -10.74149 | -154.29161 | 32952 ft | 485 kts | 25° |
| 2026-04-23 19:51 | -10.67860 | -154.26682 | 32952 ft | 484 kts | 25° |
| 2026-04-23 19:52 | -10.61533 | -154.24190 | 32953 ft | 484 kts | 25° |
| 2026-04-23 19:52 | -10.55257 | -154.21718 | 32953 ft | 483 kts | 25° |
| 2026-04-23 19:53 | -10.48995 | -154.19252 | 32952 ft | 482 kts | 25° |
| 2026-04-23 19:53 | -10.42707 | -154.16779 | 32953 ft | 482 kts | 25° |
| 2026-04-23 19:54 | -10.36468 | -154.14323 | 32952 ft | 481 kts | 25° |
| 2026-04-23 19:54 | -10.30188 | -154.11855 | 32952 ft | 482 kts | 24° |
| 2026-04-23 19:55 | -10.23935 | -154.09396 | 32953 ft | 480 kts | 24° |
| 2026-04-23 19:55 | -10.17694 | -154.06946 | 32952 ft | 481 kts | 24° |
| 2026-04-23 19:56 | -10.11414 | -154.04480 | 32952 ft | 480 kts | 24° |
| 2026-04-23 19:56 | -10.05178 | -154.02033 | 32952 ft | 479 kts | 24° |
| 2026-04-23 19:57 | -9.98920 | -153.99570 | 32951 ft | 478 kts | 26° |
| 2026-04-23 19:57 | -9.92934 | -153.96561 | 32965 ft | 477 kts | 30° |
| 2026-04-23 19:58 | -9.86991 | -153.93481 | 32965 ft | 476 kts | 30° |
| 2026-04-23 19:58 | -9.81040 | -153.90430 | 32966 ft | 476 kts | 30° |
| 2026-04-23 19:59 | -9.75097 | -153.87401 | 32964 ft | 477 kts | 30° |
| 2026-04-23 19:59 | -9.69135 | -153.84374 | 32965 ft | 476 kts | 30° |
| 2026-04-23 20:00 | -9.63189 | -153.81358 | 32963 ft | 477 kts | 30° |
| 2026-04-23 20:00 | -9.57224 | -153.78337 | 32965 ft | 478 kts | 30° |
| 2026-04-23 20:01 | -9.51257 | -153.75319 | 32964 ft | 477 kts | 30° |
| 2026-04-23 20:01 | -9.45309 | -153.72311 | 32967 ft | 479 kts | 30° |
| 2026-04-23 20:02 | -9.39299 | -153.69275 | 32969 ft | 478 kts | 30° |
| 2026-04-23 20:02 | -9.33314 | -153.66252 | 32970 ft | 476 kts | 30° |
| 2026-04-23 20:03 | -9.27357 | -153.63245 | 32969 ft | 477 kts | 30° |
| 2026-04-23 20:03 | -9.21394 | -153.60236 | 32969 ft | 478 kts | 30° |
| 2026-04-23 20:04 | -9.15389 | -153.57205 | 32969 ft | 478 kts | 30° |
| 2026-04-23 20:04 | -9.09415 | -153.54193 | 32969 ft | 479 kts | 30° |
| 2026-04-23 20:05 | -9.03420 | -153.51170 | 32967 ft | 479 kts | 30° |
| 2026-04-23 20:05 | -8.97460 | -153.48167 | 32969 ft | 478 kts | 30° |
| 2026-04-23 20:06 | -8.91499 | -153.45165 | 32964 ft | 478 kts | 30° |
| 2026-04-23 20:06 | -8.85486 | -153.42137 | 32961 ft | 478 kts | 30° |
| 2026-04-23 20:07 | -8.79502 | -153.39125 | 32954 ft | 478 kts | 29° |
| 2026-04-23 20:07 | -8.73521 | -153.36114 | 32954 ft | 479 kts | 29° |
| 2026-04-23 20:08 | -8.67518 | -153.33096 | 32959 ft | 481 kts | 29° |
| 2026-04-23 20:08 | -8.61485 | -153.30061 | 32961 ft | 480 kts | 29° |
| 2026-04-23 20:09 | -8.55508 | -153.27057 | 32960 ft | 480 kts | 29° |
| 2026-04-23 20:09 | -8.49512 | -153.24045 | 32958 ft | 479 kts | 28° |
| 2026-04-23 20:10 | -8.44520 | -153.21538 | 32956 ft | 480 kts | 28° |
| 2026-04-23 20:10 | -8.37509 | -153.18018 | 32956 ft | 480 kts | 28° |
| 2026-04-23 20:11 | -8.31507 | -153.15004 | 32954 ft | 479 kts | 28° |
| 2026-04-23 20:11 | -8.25520 | -153.12001 | 32953 ft | 480 kts | 28° |
| 2026-04-23 20:12 | -8.19521 | -153.08992 | 32952 ft | 481 kts | 28° |
| 2026-04-23 20:12 | -8.13521 | -153.05983 | 32949 ft | 481 kts | 28° |
| 2026-04-23 20:13 | -8.07508 | -153.02969 | 32951 ft | 481 kts | 28° |
| 2026-04-23 20:13 | -8.01506 | -152.99962 | 32951 ft | 481 kts | 28° |
| 2026-04-23 20:14 | -7.95469 | -152.96938 | 32953 ft | 481 kts | 28° |
| 2026-04-23 20:14 | -7.89439 | -152.93918 | 32950 ft | 483 kts | 28° |
| 2026-04-23 20:15 | -7.83415 | -152.90903 | 32949 ft | 483 kts | 27° |
| 2026-04-23 20:15 | -7.77386 | -152.87886 | 32951 ft | 482 kts | 27° |
| 2026-04-23 20:16 | -7.71463 | -152.84923 | 32952 ft | 482 kts | 27° |
| 2026-04-23 20:16 | -7.65442 | -152.81911 | 32952 ft | 484 kts | 27° |
| 2026-04-23 20:17 | -7.59359 | -152.78870 | 32951 ft | 487 kts | 27° |
| 2026-04-23 20:17 | -7.53241 | -152.75812 | 32952 ft | 490 kts | 27° |
| 2026-04-23 20:18 | -7.47093 | -152.72740 | 32954 ft | 490 kts | 26° |
| 2026-04-23 20:18 | -7.40984 | -152.69690 | 32952 ft | 492 kts | 26° |
| 2026-04-23 20:19 | -7.34821 | -152.66612 | 32954 ft | 490 kts | 26° |
| 2026-04-23 20:19 | -7.28732 | -152.63573 | 32950 ft | 486 kts | 26° |
| 2026-04-23 20:20 | -7.22595 | -152.60510 | 32953 ft | 489 kts | 26° |
| 2026-04-23 20:20 | -7.16496 | -152.57468 | 32953 ft | 487 kts | 26° |
| 2026-04-23 20:21 | -7.10392 | -152.54422 | 32953 ft | 487 kts | 26° |
| 2026-04-23 20:21 | -7.04296 | -152.51382 | 32953 ft | 486 kts | 26° |
| 2026-04-23 20:22 | -6.98241 | -152.48364 | 32953 ft | 485 kts | 26° |
| 2026-04-23 20:22 | -6.92132 | -152.45320 | 32951 ft | 486 kts | 26° |
| 2026-04-23 20:23 | -6.86066 | -152.42299 | 32952 ft | 487 kts | 26° |
| 2026-04-23 20:23 | -6.79941 | -152.39249 | 32951 ft | 487 kts | 26° |
| 2026-04-23 20:24 | -6.73835 | -152.36209 | 32949 ft | 488 kts | 26° |
| 2026-04-23 20:24 | -6.67732 | -152.33171 | 32938 ft | 488 kts | 25° |
| 2026-04-23 20:25 | -6.61630 | -152.30135 | 32935 ft | 489 kts | 25° |
| 2026-04-23 20:25 | -6.55492 | -152.27081 | 32935 ft | 488 kts | 25° |
| 2026-04-23 20:26 | -6.49351 | -152.24028 | 32934 ft | 490 kts | 25° |
| 2026-04-23 20:26 | -6.43247 | -152.20993 | 32933 ft | 490 kts | 25° |
| 2026-04-23 20:27 | -6.37067 | -152.17921 | 32934 ft | 491 kts | 25° |
| 2026-04-23 20:27 | -6.30948 | -152.14882 | 32938 ft | 491 kts | 25° |
| 2026-04-23 20:28 | -6.24772 | -152.11813 | 32935 ft | 492 kts | 25° |
| 2026-04-23 20:28 | -6.18628 | -152.08763 | 32937 ft | 493 kts | 25° |
| 2026-04-23 20:29 | -6.12424 | -152.05682 | 32939 ft | 494 kts | 25° |
| 2026-04-23 20:29 | -6.06269 | -152.02628 | 32947 ft | 493 kts | 24° |
| 2026-04-23 20:30 | -6.00042 | -151.99538 | 32952 ft | 494 kts | 25° |
| 2026-04-23 20:30 | -5.90730 | -151.94917 | 32957 ft | 495 kts | 24° |
| 2026-04-23 20:31 | -5.84511 | -151.91834 | 32949 ft | 494 kts | 24° |
| 2026-04-23 20:31 | -5.78297 | -151.88753 | 32945 ft | 495 kts | 24° |
| 2026-04-23 20:32 | -5.72100 | -151.85681 | 32952 ft | 496 kts | 24° |
| 2026-04-23 20:32 | -5.65912 | -151.82614 | 32945 ft | 497 kts | 24° |
| 2026-04-23 20:33 | -5.59690 | -151.79532 | 32951 ft | 496 kts | 24° |
| 2026-04-23 20:33 | -5.53493 | -151.76462 | 32948 ft | 495 kts | 23° |
| 2026-04-23 20:34 | -5.47288 | -151.73390 | 32950 ft | 496 kts | 23° |
| 2026-04-23 20:34 | -5.41083 | -151.70319 | 32951 ft | 496 kts | 23° |
| 2026-04-23 20:35 | -5.34855 | -151.67236 | 32947 ft | 496 kts | 23° |
| 2026-04-23 20:35 | -5.28638 | -151.64159 | 32952 ft | 496 kts | 23° |
| 2026-04-23 20:36 | -5.22436 | -151.61092 | 32953 ft | 495 kts | 22° |
| 2026-04-23 20:36 | -5.16225 | -151.58019 | 32953 ft | 496 kts | 22° |
| 2026-04-23 20:37 | -5.10040 | -151.54961 | 32947 ft | 495 kts | 22° |
| 2026-04-23 20:37 | -5.03819 | -151.51884 | 32947 ft | 496 kts | 22° |
| 2026-04-23 20:38 | -4.97607 | -151.48805 | 32998 ft | 501 kts | 22° |
| 2026-04-23 20:38 | -4.94486 | -151.47238 | 33428 ft | 500 kts | 22° |
| 2026-04-23 20:38 | -4.91397 | -151.45683 | 34149 ft | 494 kts | 22° |
| 2026-04-23 20:39 | -4.88307 | -151.44130 | 34782 ft | 490 kts | 22° |
| 2026-04-23 20:39 | -4.85276 | -151.42609 | 34939 ft | 493 kts | 22° |
| 2026-04-23 20:39 | -4.79077 | -151.39497 | 34943 ft | 490 kts | 22° |
| 2026-04-23 20:40 | -4.72831 | -151.36363 | 34944 ft | 491 kts | 22° |
| 2026-04-23 20:40 | -4.66702 | -151.33289 | 34931 ft | 490 kts | 21° |
| 2026-04-23 20:41 | -4.60563 | -151.30211 | 34931 ft | 489 kts | 22° |
| 2026-04-23 20:41 | -4.54470 | -151.27156 | 34929 ft | 490 kts | 22° |
| 2026-04-23 20:42 | -4.48361 | -151.24094 | 34927 ft | 489 kts | 21° |
| 2026-04-23 20:42 | -4.42230 | -151.21021 | 34927 ft | 488 kts | 21° |
| 2026-04-23 20:43 | -4.36143 | -151.17970 | 34927 ft | 489 kts | 22° |
| 2026-04-23 20:43 | -4.30028 | -151.14906 | 34928 ft | 489 kts | 22° |
| 2026-04-23 20:44 | -4.23911 | -151.11842 | 34928 ft | 488 kts | 21° |
| 2026-04-23 20:44 | -4.17809 | -151.08787 | 34928 ft | 488 kts | 22° |
| 2026-04-23 20:45 | -4.11671 | -151.05714 | 34929 ft | 488 kts | 21° |
| 2026-04-23 20:45 | -4.05566 | -151.02657 | 34929 ft | 488 kts | 21° |
| 2026-04-23 20:46 | -3.99492 | -150.99617 | 34928 ft | 487 kts | 21° |
| 2026-04-23 20:46 | -3.93391 | -150.96564 | 34928 ft | 489 kts | 21° |
| 2026-04-23 20:47 | -3.87302 | -150.93517 | 34931 ft | 488 kts | 22° |
| 2026-04-23 20:47 | -3.81189 | -150.90459 | 34928 ft | 488 kts | 21° |
| 2026-04-23 20:48 | -3.75077 | -150.87401 | 34929 ft | 487 kts | 21° |
| 2026-04-23 20:48 | -3.69018 | -150.84370 | 34931 ft | 488 kts | 21° |
| 2026-04-23 20:49 | -3.62892 | -150.81308 | 34928 ft | 489 kts | 21° |
| 2026-04-23 20:49 | -3.56804 | -150.78264 | 34923 ft | 489 kts | 21° |
| 2026-04-23 20:50 | -3.50652 | -150.75188 | 34923 ft | 490 kts | 21° |
| 2026-04-23 20:50 | -3.44560 | -150.72144 | 34920 ft | 489 kts | 21° |
| 2026-04-23 20:51 | -3.38436 | -150.69083 | 34919 ft | 489 kts | 21° |
| 2026-04-23 20:51 | -3.32320 | -150.66026 | 34918 ft | 489 kts | 21° |
| 2026-04-23 20:52 | -3.26225 | -150.62982 | 34914 ft | 490 kts | 21° |
| 2026-04-23 20:52 | -3.20098 | -150.59921 | 34915 ft | 491 kts | 21° |
| 2026-04-23 20:53 | -3.13970 | -150.56859 | 34921 ft | 490 kts | 21° |
| 2026-04-23 20:53 | -3.07806 | -150.53781 | 34925 ft | 489 kts | 21° |
| 2026-04-23 20:54 | -3.01701 | -150.50732 | 34932 ft | 491 kts | 21° |
| 2026-04-23 20:54 | -2.95562 | -150.47667 | 34934 ft | 490 kts | 21° |
| 2026-04-23 20:55 | -2.89452 | -150.44617 | 34935 ft | 491 kts | 21° |
| 2026-04-23 20:55 | -2.83318 | -150.41554 | 34939 ft | 489 kts | 21° |
| 2026-04-23 20:56 | -2.77218 | -150.38510 | 34938 ft | 488 kts | 21° |
| 2026-04-23 20:56 | -2.71104 | -150.35460 | 34939 ft | 490 kts | 21° |
| 2026-04-23 20:57 | -2.64975 | -150.32400 | 34927 ft | 487 kts | 21° |
| 2026-04-23 20:57 | -2.58923 | -150.29381 | 34927 ft | 486 kts | 22° |
| 2026-04-23 20:58 | -2.52828 | -150.26340 | 34927 ft | 487 kts | 21° |
| 2026-04-23 20:58 | -2.46767 | -150.23317 | 34928 ft | 485 kts | 22° |
| 2026-04-23 20:59 | -2.40669 | -150.20274 | 34926 ft | 486 kts | 22° |
| 2026-04-23 20:59 | -2.34617 | -150.17256 | 34927 ft | 486 kts | 22° |
| 2026-04-23 21:00 | -2.28550 | -150.14230 | 34921 ft | 485 kts | 22° |
| 2026-04-23 21:00 | -2.22508 | -150.11218 | 34916 ft | 485 kts | 22° |
| 2026-04-23 21:01 | -2.16458 | -150.08202 | 34911 ft | 484 kts | 22° |
| 2026-04-23 21:01 | -2.10407 | -150.05185 | 34913 ft | 484 kts | 22° |
| 2026-04-23 21:02 | -2.04341 | -150.02161 | 34908 ft | 483 kts | 22° |
| 2026-04-23 21:02 | -1.98188 | -149.99458 | 34913 ft | 478 kts | 13° |
| 2026-04-23 21:03 | -1.91772 | -149.97496 | 34919 ft | 477 kts | 12° |
| 2026-04-23 21:03 | -1.85421 | -149.95575 | 34928 ft | 477 kts | 12° |
| 2026-04-23 21:04 | -1.79012 | -149.93634 | 34930 ft | 477 kts | 12° |
| 2026-04-23 21:04 | -1.72619 | -149.91698 | 34930 ft | 477 kts | 12° |
| 2026-04-23 21:05 | -1.66223 | -149.89760 | 34930 ft | 476 kts | 12° |
| 2026-04-23 21:05 | -1.59869 | -149.87836 | 34931 ft | 476 kts | 12° |
| 2026-04-23 21:06 | -1.53536 | -149.85918 | 34933 ft | 476 kts | 12° |
| 2026-04-23 21:06 | -1.47135 | -149.83978 | 34928 ft | 475 kts | 12° |
| 2026-04-23 21:07 | -1.40796 | -149.82059 | 34919 ft | 475 kts | 13° |
| 2026-04-23 21:07 | -1.34478 | -149.80144 | 34911 ft | 475 kts | 13° |
| 2026-04-23 21:08 | -1.28133 | -149.78221 | 34912 ft | 473 kts | 13° |
| 2026-04-23 21:08 | -1.21825 | -149.76312 | 34909 ft | 473 kts | 13° |
| 2026-04-23 21:09 | -1.15487 | -149.74393 | 34911 ft | 474 kts | 13° |
| 2026-04-23 21:09 | -1.09123 | -149.72466 | 34912 ft | 474 kts | 13° |
| 2026-04-23 21:10 | -1.02897 | -149.70579 | 34911 ft | 474 kts | 13° |
| 2026-04-23 21:10 | -0.96561 | -149.68660 | 34908 ft | 473 kts | 13° |
| 2026-04-23 21:11 | -0.90250 | -149.66750 | 34901 ft | 471 kts | 13° |
| 2026-04-23 21:11 | -0.83939 | -149.64839 | 34899 ft | 472 kts | 13° |
| 2026-04-23 21:12 | -0.77625 | -149.62927 | 34902 ft | 472 kts | 13° |
| 2026-04-23 21:12 | -0.71328 | -149.61020 | 34908 ft | 472 kts | 13° |
| 2026-04-23 21:13 | -0.65004 | -149.59105 | 34912 ft | 471 kts | 13° |
| 2026-04-23 21:13 | -0.58714 | -149.57201 | 34915 ft | 470 kts | 13° |
| 2026-04-23 21:14 | -0.52399 | -149.55289 | 34914 ft | 470 kts | 12° |
| 2026-04-23 21:14 | -0.46144 | -149.53395 | 34913 ft | 469 kts | 12° |
| 2026-04-23 21:15 | -0.39852 | -149.51491 | 34914 ft | 470 kts | 12° |
| 2026-04-23 21:15 | -0.33543 | -149.49577 | 34910 ft | 470 kts | 13° |
| 2026-04-23 21:16 | -0.27492 | -149.46994 | 34913 ft | 475 kts | 20° |
| 2026-04-23 21:16 | -0.21471 | -149.44177 | 34914 ft | 474 kts | 20° |
| 2026-04-23 21:17 | -0.15467 | -149.41370 | 34914 ft | 473 kts | 20° |
| 2026-04-23 21:17 | -0.09498 | -149.38580 | 34915 ft | 473 kts | 20° |
| 2026-04-23 21:18 | -0.03481 | -149.35770 | 34914 ft | 474 kts | 20° |
| 2026-04-23 21:18 | 0.02534 | -149.32960 | 34904 ft | 473 kts | 20° |
| 2026-04-23 21:19 | 0.08492 | -149.30177 | 34903 ft | 474 kts | 20° |
| 2026-04-23 21:19 | 0.14480 | -149.27382 | 34909 ft | 474 kts | 20° |
| 2026-04-23 21:20 | 0.20477 | -149.24580 | 34908 ft | 473 kts | 20° |
| 2026-04-23 21:20 | 0.26467 | -149.21783 | 34909 ft | 473 kts | 20° |
| 2026-04-23 21:21 | 0.32496 | -149.18968 | 34909 ft | 475 kts | 20° |
| 2026-04-23 21:21 | 0.38468 | -149.16179 | 34909 ft | 474 kts | 20° |
| 2026-04-23 21:22 | 0.44452 | -149.13384 | 34909 ft | 474 kts | 20° |
| 2026-04-23 21:22 | 0.50487 | -149.10567 | 34908 ft | 475 kts | 20° |
| 2026-04-23 21:23 | 0.56478 | -149.07768 | 34908 ft | 474 kts | 20° |
| 2026-04-23 21:23 | 0.62477 | -149.04967 | 34909 ft | 474 kts | 20° |
| 2026-04-23 21:24 | 0.68495 | -149.02156 | 34908 ft | 475 kts | 20° |
| 2026-04-23 21:24 | 0.74418 | -148.99390 | 34909 ft | 474 kts | 20° |
| 2026-04-23 21:25 | 0.80405 | -148.96594 | 34908 ft | 475 kts | 20° |
| 2026-04-23 21:25 | 0.86425 | -148.93782 | 34908 ft | 475 kts | 20° |
| 2026-04-23 21:26 | 0.92462 | -148.90962 | 34905 ft | 474 kts | 20° |
| 2026-04-23 21:26 | 0.98474 | -148.88153 | 34907 ft | 475 kts | 20° |
| 2026-04-23 21:27 | 1.04478 | -148.85349 | 34908 ft | 475 kts | 20° |
| 2026-04-23 21:27 | 1.10505 | -148.82533 | 34907 ft | 475 kts | 20° |
| 2026-04-23 21:28 | 1.16514 | -148.79726 | 34912 ft | 475 kts | 20° |
| 2026-04-23 21:28 | 1.22518 | -148.76921 | 34913 ft | 474 kts | 20° |
| 2026-04-23 21:29 | 1.28138 | -148.74295 | 34912 ft | 475 kts | 20° |
| 2026-04-23 21:29 | 1.34118 | -148.71501 | 34914 ft | 474 kts | 20° |
| 2026-04-23 21:30 | 1.40124 | -148.68695 | 34913 ft | 475 kts | 20° |
| 2026-04-23 21:30 | 1.46137 | -148.65884 | 34913 ft | 476 kts | 20° |
| 2026-04-23 21:31 | 1.52172 | -148.63065 | 34912 ft | 474 kts | 20° |
| 2026-04-23 21:31 | 1.58171 | -148.60260 | 34912 ft | 475 kts | 20° |
| 2026-04-23 21:32 | 1.64180 | -148.57452 | 34913 ft | 474 kts | 20° |
| 2026-04-23 21:32 | 1.70146 | -148.54663 | 34912 ft | 476 kts | 20° |
| 2026-04-23 21:33 | 1.76198 | -148.51834 | 34913 ft | 475 kts | 20° |
| 2026-04-23 21:33 | 1.82170 | -148.49043 | 34914 ft | 475 kts | 20° |
| 2026-04-23 21:34 | 1.88194 | -148.46227 | 34912 ft | 474 kts | 20° |
| 2026-04-23 21:34 | 1.94164 | -148.43436 | 34914 ft | 475 kts | 20° |
| 2026-04-23 21:35 | 2.00156 | -148.40634 | 34914 ft | 474 kts | 20° |
| 2026-04-23 21:35 | 2.06170 | -148.37822 | 34911 ft | 476 kts | 20° |
| 2026-04-23 21:36 | 2.15206 | -148.33595 | 34908 ft | 474 kts | 20° |
| 2026-04-23 21:37 | 2.21203 | -148.30791 | 34907 ft | 474 kts | 20° |
| 2026-04-23 21:37 | 2.27195 | -148.27988 | 34910 ft | 475 kts | 21° |
| 2026-04-23 21:38 | 2.33200 | -148.25176 | 34908 ft | 477 kts | 20° |
| 2026-04-23 21:38 | 2.39216 | -148.22360 | 34908 ft | 478 kts | 21° |
| 2026-04-23 21:39 | 2.45255 | -148.19533 | 34909 ft | 477 kts | 21° |
| 2026-04-23 21:39 | 2.51276 | -148.16716 | 34910 ft | 477 kts | 21° |
| 2026-04-23 21:40 | 2.57313 | -148.13890 | 34909 ft | 477 kts | 21° |
| 2026-04-23 21:40 | 2.63340 | -148.11069 | 34909 ft | 476 kts | 21° |
| 2026-04-23 21:41 | 2.69380 | -148.08243 | 34900 ft | 477 kts | 21° |
| 2026-04-23 21:41 | 2.75440 | -148.05405 | 34888 ft | 479 kts | 21° |
| 2026-04-23 21:42 | 2.81478 | -148.02579 | 34891 ft | 478 kts | 22° |
| 2026-04-23 21:42 | 2.87497 | -147.99759 | 34890 ft | 478 kts | 22° |
| 2026-04-23 21:43 | 2.93541 | -147.96930 | 34887 ft | 478 kts | 22° |
| 2026-04-23 21:43 | 2.99584 | -147.94099 | 34878 ft | 477 kts | 22° |
| 2026-04-23 21:44 | 3.05613 | -147.91275 | 34893 ft | 478 kts | 22° |
| 2026-04-23 21:44 | 3.11692 | -147.88428 | 34893 ft | 480 kts | 21° |
| 2026-04-23 21:45 | 3.17753 | -147.85588 | 34892 ft | 480 kts | 22° |
| 2026-04-23 21:45 | 3.23817 | -147.82745 | 34896 ft | 480 kts | 22° |
| 2026-04-23 21:46 | 3.29881 | -147.79904 | 34891 ft | 480 kts | 22° |
| 2026-04-23 21:46 | 3.35951 | -147.77058 | 34893 ft | 479 kts | 21° |
| 2026-04-23 21:47 | 3.42024 | -147.74211 | 34892 ft | 481 kts | 21° |
| 2026-04-23 21:47 | 3.48115 | -147.71355 | 34892 ft | 480 kts | 21° |
| 2026-04-23 21:48 | 3.54180 | -147.68512 | 34894 ft | 482 kts | 21° |
| 2026-04-23 21:48 | 3.60286 | -147.65648 | 34901 ft | 484 kts | 21° |
| 2026-04-23 21:49 | 3.66357 | -147.62801 | 34905 ft | 483 kts | 21° |
| 2026-04-23 21:49 | 3.72465 | -147.59935 | 34905 ft | 484 kts | 21° |
| 2026-04-23 21:50 | 3.78624 | -147.57045 | 34908 ft | 485 kts | 21° |
| 2026-04-23 21:50 | 3.84752 | -147.54169 | 34915 ft | 484 kts | 21° |
| 2026-04-23 21:51 | 3.90878 | -147.51294 | 34914 ft | 485 kts | 21° |
| 2026-04-23 21:51 | 3.97027 | -147.48408 | 34915 ft | 487 kts | 21° |
| 2026-04-23 21:52 | 4.03139 | -147.45538 | 34914 ft | 487 kts | 21° |
| 2026-04-23 21:52 | 4.09302 | -147.42644 | 34914 ft | 486 kts | 21° |
| 2026-04-23 21:53 | 4.15448 | -147.39758 | 34913 ft | 489 kts | 21° |
| 2026-04-23 21:53 | 4.21620 | -147.36858 | 34915 ft | 487 kts | 21° |
| 2026-04-23 21:54 | 4.27780 | -147.33963 | 34905 ft | 490 kts | 21° |
| 2026-04-23 21:54 | 4.33963 | -147.31058 | 34904 ft | 489 kts | 21° |
| 2026-04-23 21:55 | 4.40155 | -147.28148 | 34900 ft | 490 kts | 21° |
| 2026-04-23 21:55 | 4.46303 | -147.25258 | 34890 ft | 489 kts | 21° |
| 2026-04-23 21:56 | 4.52540 | -147.22325 | 34892 ft | 492 kts | 21° |
| 2026-04-23 21:56 | 4.58746 | -147.19408 | 34885 ft | 491 kts | 21° |
| 2026-04-23 21:57 | 4.64938 | -147.16495 | 34888 ft | 491 kts | 21° |
| 2026-04-23 21:57 | 4.71155 | -147.13570 | 34886 ft | 492 kts | 21° |
| 2026-04-23 21:58 | 4.77359 | -147.10651 | 34888 ft | 493 kts | 21° |
| 2026-04-23 21:58 | 4.83554 | -147.07735 | 34886 ft | 493 kts | 21° |
| 2026-04-23 21:59 | 4.89790 | -147.04799 | 34889 ft | 493 kts | 21° |
| 2026-04-23 21:59 | 4.96009 | -147.01871 | 34888 ft | 494 kts | 21° |
| 2026-04-23 22:00 | 5.05178 | -146.96939 | 34891 ft | 499 kts | 27° |
| 2026-04-23 22:00 | 5.11145 | -146.93393 | 34891 ft | 498 kts | 27° |
| 2026-04-23 22:01 | 5.17128 | -146.89839 | 34892 ft | 497 kts | 27° |
| 2026-04-23 22:01 | 5.23062 | -146.86316 | 34893 ft | 497 kts | 27° |
| 2026-04-23 22:02 | 5.29049 | -146.82762 | 34893 ft | 495 kts | 27° |
| 2026-04-23 22:02 | 5.34981 | -146.79240 | 34894 ft | 496 kts | 27° |
| 2026-04-23 22:03 | 5.40934 | -146.75707 | 34890 ft | 496 kts | 27° |
| 2026-04-23 22:03 | 5.46860 | -146.72188 | 34895 ft | 495 kts | 27° |
| 2026-04-23 22:04 | 5.52823 | -146.68646 | 34891 ft | 495 kts | 27° |
| 2026-04-23 22:04 | 5.58755 | -146.65122 | 34894 ft | 495 kts | 27° |
| 2026-04-23 22:05 | 5.64709 | -146.61583 | 34893 ft | 495 kts | 28° |
| 2026-04-23 22:05 | 5.70651 | -146.58052 | 34898 ft | 494 kts | 27° |
| 2026-04-23 22:06 | 5.76569 | -146.54533 | 34898 ft | 494 kts | 27° |
| 2026-04-23 22:06 | 5.82465 | -146.51027 | 34903 ft | 493 kts | 28° |
| 2026-04-23 22:07 | 5.88406 | -146.47494 | 34903 ft | 495 kts | 28° |
| 2026-04-23 22:07 | 5.94333 | -146.43967 | 34907 ft | 494 kts | 28° |
| 2026-04-23 22:08 | 6.00256 | -146.40442 | 34899 ft | 493 kts | 28° |
| 2026-04-23 22:08 | 6.06158 | -146.36929 | 34901 ft | 492 kts | 28° |
| 2026-04-23 22:09 | 6.12074 | -146.33408 | 34891 ft | 493 kts | 28° |
| 2026-04-23 22:09 | 6.17981 | -146.29889 | 34894 ft | 492 kts | 28° |
| 2026-04-23 22:10 | 6.23868 | -146.26382 | 34896 ft | 491 kts | 28° |
| 2026-04-23 22:10 | 6.29772 | -146.22864 | 34898 ft | 492 kts | 28° |
| 2026-04-23 22:11 | 6.35677 | -146.19345 | 34898 ft | 492 kts | 29° |
| 2026-04-23 22:11 | 6.41550 | -146.15843 | 34895 ft | 492 kts | 29° |
| 2026-04-23 22:12 | 6.47430 | -146.12337 | 34892 ft | 492 kts | 29° |
| 2026-04-23 22:12 | 6.53335 | -146.08813 | 34889 ft | 491 kts | 29° |
| 2026-04-23 22:13 | 6.59239 | -146.05292 | 34888 ft | 491 kts | 29° |
| 2026-04-23 22:13 | 6.65096 | -146.01794 | 34890 ft | 490 kts | 29° |
| 2026-04-23 22:14 | 6.70976 | -145.98285 | 34890 ft | 492 kts | 29° |
| 2026-04-23 22:14 | 6.76886 | -145.94756 | 34889 ft | 490 kts | 29° |
| 2026-04-23 22:15 | 6.82785 | -145.91232 | 34889 ft | 491 kts | 29° |
| 2026-04-23 22:15 | 6.88646 | -145.87730 | 34890 ft | 492 kts | 29° |
| 2026-04-23 22:16 | 6.94546 | -145.84203 | 34890 ft | 492 kts | 29° |
| 2026-04-23 22:16 | 7.00444 | -145.80676 | 34891 ft | 493 kts | 29° |
| 2026-04-23 22:17 | 7.06346 | -145.77147 | 34892 ft | 491 kts | 29° |
| 2026-04-23 22:17 | 7.12260 | -145.73608 | 34893 ft | 492 kts | 29° |
| 2026-04-23 22:18 | 7.18143 | -145.70088 | 34893 ft | 492 kts | 29° |
| 2026-04-23 22:18 | 7.24080 | -145.66534 | 34894 ft | 493 kts | 29° |
| 2026-04-23 22:19 | 7.29957 | -145.63014 | 34897 ft | 491 kts | 29° |
| 2026-04-23 22:19 | 7.35884 | -145.59465 | 34898 ft | 492 kts | 29° |
| 2026-04-23 22:20 | 7.41807 | -145.55916 | 34899 ft | 492 kts | 29° |
| 2026-04-23 22:20 | 7.47744 | -145.52357 | 34902 ft | 492 kts | 29° |
| 2026-04-23 22:21 | 7.53621 | -145.48834 | 34904 ft | 491 kts | 29° |
| 2026-04-23 22:21 | 7.59536 | -145.45287 | 34911 ft | 493 kts | 29° |
| 2026-04-23 22:22 | 7.65470 | -145.41727 | 34917 ft | 493 kts | 29° |
| 2026-04-23 22:22 | 7.71380 | -145.38181 | 34914 ft | 493 kts | 29° |
| 2026-04-23 22:23 | 7.77305 | -145.34624 | 34913 ft | 492 kts | 29° |
| 2026-04-23 22:23 | 7.83178 | -145.31096 | 34908 ft | 492 kts | 29° |
| 2026-04-23 22:24 | 7.89081 | -145.27550 | 34908 ft | 492 kts | 29° |
| 2026-04-23 22:24 | 7.94983 | -145.24004 | 34910 ft | 492 kts | 29° |
| 2026-04-23 22:25 | 8.00863 | -145.20468 | 34909 ft | 491 kts | 29° |
| 2026-04-23 22:25 | 8.06767 | -145.16919 | 34909 ft | 493 kts | 29° |
| 2026-04-23 22:26 | 8.12686 | -145.13358 | 34908 ft | 493 kts | 29° |
| 2026-04-23 22:26 | 8.18608 | -145.09795 | 34908 ft | 493 kts | 29° |
| 2026-04-23 22:27 | 8.24523 | -145.06233 | 34909 ft | 493 kts | 29° |
| 2026-04-23 22:27 | 8.30426 | -145.02679 | 34909 ft | 493 kts | 29° |
| 2026-04-23 22:28 | 8.36345 | -144.99114 | 34910 ft | 493 kts | 29° |
| 2026-04-23 22:28 | 8.42228 | -144.95569 | 34911 ft | 494 kts | 29° |
| 2026-04-23 22:29 | 8.48175 | -144.91983 | 34911 ft | 496 kts | 29° |
| 2026-04-23 22:29 | 8.54091 | -144.88415 | 34912 ft | 495 kts | 29° |
| 2026-04-23 22:30 | 8.60015 | -144.84843 | 34911 ft | 495 kts | 29° |
| 2026-04-23 22:30 | 8.65922 | -144.81277 | 34910 ft | 496 kts | 29° |
| 2026-04-23 22:31 | 8.71866 | -144.77690 | 34908 ft | 496 kts | 29° |
| 2026-04-23 22:31 | 8.77859 | -144.74069 | 34909 ft | 497 kts | 29° |
| 2026-04-23 22:32 | 8.83779 | -144.70494 | 34909 ft | 497 kts | 29° |
| 2026-04-23 22:32 | 8.89750 | -144.66884 | 34915 ft | 496 kts | 29° |
| 2026-04-23 22:33 | 8.95699 | -144.63287 | 34926 ft | 497 kts | 29° |
| 2026-04-23 22:33 | 9.01709 | -144.59653 | 34927 ft | 497 kts | 29° |
| 2026-04-23 22:34 | 9.07636 | -144.56065 | 34926 ft | 497 kts | 29° |
| 2026-04-23 22:34 | 9.13603 | -144.52454 | 34919 ft | 497 kts | 29° |
| 2026-04-23 22:35 | 9.19563 | -144.48845 | 34919 ft | 498 kts | 29° |
| 2026-04-23 22:35 | 9.25506 | -144.45245 | 34912 ft | 498 kts | 29° |
| 2026-04-23 22:36 | 9.31464 | -144.41634 | 34913 ft | 497 kts | 29° |
| 2026-04-23 22:36 | 9.37421 | -144.38022 | 34916 ft | 495 kts | 29° |
| 2026-04-23 22:37 | 9.43375 | -144.34410 | 34912 ft | 497 kts | 29° |
| 2026-04-23 22:37 | 9.49327 | -144.30798 | 34911 ft | 497 kts | 29° |
| 2026-04-23 22:38 | 9.55263 | -144.27196 | 34914 ft | 496 kts | 29° |
| 2026-04-23 22:38 | 9.61220 | -144.23578 | 34911 ft | 497 kts | 29° |
| 2026-04-23 22:39 | 9.67160 | -144.19969 | 34911 ft | 496 kts | 29° |
| 2026-04-23 22:39 | 9.73125 | -144.16344 | 34912 ft | 498 kts | 29° |
| 2026-04-23 22:40 | 9.79060 | -144.12735 | 34910 ft | 496 kts | 29° |
| 2026-04-23 22:41 | 9.87996 | -144.07298 | 34911 ft | 497 kts | 29° |
| 2026-04-23 22:41 | 9.93873 | -144.03722 | 34911 ft | 497 kts | 29° |
| 2026-04-23 22:42 | 9.99802 | -144.00111 | 34910 ft | 495 kts | 29° |
| 2026-04-23 22:42 | 10.05769 | -143.96579 | 34909 ft | 496 kts | 28° |
| 2026-04-23 22:43 | 10.11750 | -143.93072 | 34908 ft | 496 kts | 28° |
| 2026-04-23 22:43 | 10.17743 | -143.89554 | 34909 ft | 496 kts | 28° |
| 2026-04-23 22:44 | 10.23730 | -143.86035 | 34911 ft | 495 kts | 28° |
| 2026-04-23 22:44 | 10.29713 | -143.82515 | 34910 ft | 496 kts | 28° |
| 2026-04-23 22:45 | 10.35707 | -143.78987 | 34911 ft | 496 kts | 28° |
| 2026-04-23 22:45 | 10.41710 | -143.75452 | 34911 ft | 496 kts | 28° |
| 2026-04-23 22:46 | 10.47680 | -143.71933 | 34910 ft | 494 kts | 28° |
| 2026-04-23 22:46 | 10.53670 | -143.68401 | 34912 ft | 495 kts | 28° |
| 2026-04-23 22:47 | 10.59641 | -143.64879 | 34911 ft | 494 kts | 28° |
| 2026-04-23 22:47 | 10.65654 | -143.61331 | 34913 ft | 496 kts | 28° |
| 2026-04-23 22:48 | 10.71634 | -143.57800 | 34912 ft | 494 kts | 28° |
| 2026-04-23 22:48 | 10.77568 | -143.54294 | 34914 ft | 495 kts | 28° |
| 2026-04-23 22:49 | 10.83565 | -143.50749 | 34913 ft | 494 kts | 28° |
| 2026-04-23 22:49 | 10.89503 | -143.47240 | 34914 ft | 495 kts | 28° |
| 2026-04-23 22:50 | 10.95486 | -143.43700 | 34913 ft | 494 kts | 28° |
| 2026-04-23 22:50 | 11.01482 | -143.40152 | 34917 ft | 495 kts | 28° |
| 2026-04-23 22:51 | 11.07416 | -143.36638 | 34921 ft | 494 kts | 28° |
| 2026-04-23 22:51 | 11.13417 | -143.33084 | 34915 ft | 494 kts | 28° |
| 2026-04-23 22:52 | 11.19369 | -143.29556 | 34921 ft | 493 kts | 28° |
| 2026-04-23 22:52 | 11.25286 | -143.26048 | 34928 ft | 495 kts | 28° |
| 2026-04-23 22:53 | 11.31259 | -143.22504 | 34929 ft | 494 kts | 28° |
| 2026-04-23 22:53 | 11.37243 | -143.18953 | 34928 ft | 494 kts | 28° |
| 2026-04-23 22:54 | 11.43215 | -143.15407 | 34929 ft | 494 kts | 28° |
| 2026-04-23 22:54 | 11.49154 | -143.11877 | 34929 ft | 494 kts | 28° |
| 2026-04-23 22:55 | 11.55100 | -143.08344 | 34930 ft | 493 kts | 28° |
| 2026-04-23 22:55 | 11.61020 | -143.04823 | 34929 ft | 493 kts | 28° |
| 2026-04-23 22:56 | 11.67002 | -143.01263 | 34930 ft | 494 kts | 28° |
| 2026-04-23 22:56 | 11.72949 | -142.97725 | 34931 ft | 494 kts | 28° |
| 2026-04-23 22:57 | 11.78870 | -142.94197 | 34931 ft | 495 kts | 28° |
| 2026-04-23 22:57 | 11.84869 | -142.90624 | 34931 ft | 495 kts | 28° |
| 2026-04-23 22:58 | 11.90809 | -142.87080 | 34932 ft | 493 kts | 28° |
| 2026-04-23 22:58 | 11.96761 | -142.83531 | 34931 ft | 493 kts | 28° |
| 2026-04-23 22:59 | 12.02699 | -142.79987 | 34934 ft | 493 kts | 28° |
| 2026-04-23 22:59 | 12.08608 | -142.76459 | 34934 ft | 493 kts | 28° |
| 2026-04-23 23:00 | 12.14534 | -142.72919 | 34933 ft | 493 kts | 28° |
| 2026-04-23 23:00 | 12.20511 | -142.69347 | 34931 ft | 494 kts | 28° |
| 2026-04-23 23:01 | 12.26485 | -142.65773 | 34934 ft | 494 kts | 28° |
| 2026-04-23 23:01 | 12.32441 | -142.62210 | 34935 ft | 494 kts | 28° |
| 2026-04-23 23:02 | 12.38399 | -142.58643 | 34936 ft | 493 kts | 28° |
| 2026-04-23 23:02 | 12.44317 | -142.55098 | 34934 ft | 494 kts | 28° |
| 2026-04-23 23:03 | 12.50257 | -142.51538 | 34934 ft | 493 kts | 28° |
| 2026-04-23 23:03 | 12.56197 | -142.47977 | 34935 ft | 493 kts | 28° |
| 2026-04-23 23:04 | 12.62132 | -142.44415 | 34934 ft | 493 kts | 28° |
| 2026-04-23 23:04 | 12.68049 | -142.40863 | 34934 ft | 493 kts | 28° |
| 2026-04-23 23:05 | 12.74008 | -142.37283 | 34935 ft | 492 kts | 28° |
| 2026-04-23 23:05 | 12.79922 | -142.33730 | 34928 ft | 493 kts | 28° |
| 2026-04-23 23:06 | 12.85868 | -142.30154 | 34927 ft | 493 kts | 28° |
| 2026-04-23 23:06 | 12.91808 | -142.26581 | 34930 ft | 494 kts | 28° |
| 2026-04-23 23:07 | 12.97744 | -142.23007 | 34932 ft | 493 kts | 28° |
| 2026-04-23 23:07 | 13.03681 | -142.19432 | 34931 ft | 493 kts | 28° |
| 2026-04-23 23:08 | 13.09593 | -142.15869 | 34934 ft | 492 kts | 28° |
| 2026-04-23 23:08 | 13.15521 | -142.12294 | 34936 ft | 493 kts | 28° |
| 2026-04-23 23:09 | 13.21419 | -142.08736 | 34936 ft | 493 kts | 29° |
| 2026-04-23 23:09 | 13.27351 | -142.05156 | 34937 ft | 492 kts | 28° |
| 2026-04-23 23:10 | 13.33265 | -142.01584 | 34936 ft | 492 kts | 28° |
| 2026-04-23 23:10 | 13.39154 | -141.98024 | 34938 ft | 492 kts | 29° |
| 2026-04-23 23:11 | 13.45059 | -141.94453 | 34946 ft | 492 kts | 29° |
| 2026-04-23 23:11 | 13.50978 | -141.90872 | 34951 ft | 491 kts | 29° |
| 2026-04-23 23:12 | 13.56881 | -141.87299 | 34950 ft | 491 kts | 29° |
| 2026-04-23 23:12 | 13.62801 | -141.83713 | 34950 ft | 492 kts | 29° |
| 2026-04-23 23:13 | 13.68723 | -141.80124 | 34949 ft | 491 kts | 29° |
| 2026-04-23 23:13 | 13.74610 | -141.76553 | 34948 ft | 491 kts | 29° |
| 2026-04-23 23:14 | 13.80485 | -141.72987 | 34947 ft | 491 kts | 29° |
| 2026-04-23 23:14 | 13.86404 | -141.69394 | 34952 ft | 491 kts | 29° |
| 2026-04-23 23:15 | 13.92319 | -141.65801 | 34951 ft | 491 kts | 29° |
| 2026-04-23 23:15 | 13.98193 | -141.62230 | 34956 ft | 491 kts | 29° |
| 2026-04-23 23:16 | 14.04104 | -141.58635 | 34954 ft | 490 kts | 29° |
| 2026-04-23 23:16 | 14.09972 | -141.55063 | 34956 ft | 490 kts | 29° |
| 2026-04-23 23:17 | 14.15884 | -141.51462 | 34952 ft | 489 kts | 29° |
| 2026-04-23 23:17 | 14.21739 | -141.47894 | 34952 ft | 490 kts | 29° |
| 2026-04-23 23:18 | 14.27656 | -141.44286 | 34953 ft | 491 kts | 29° |
| 2026-04-23 23:18 | 14.33515 | -141.40710 | 34954 ft | 491 kts | 29° |
| 2026-04-23 23:19 | 14.39411 | -141.37111 | 34955 ft | 491 kts | 29° |
| 2026-04-23 23:19 | 14.45312 | -141.33507 | 34948 ft | 490 kts | 29° |
| 2026-04-23 23:20 | 14.51171 | -141.29925 | 34950 ft | 491 kts | 29° |
| 2026-04-23 23:20 | 14.57085 | -141.26308 | 34950 ft | 490 kts | 29° |
| 2026-04-23 23:21 | 14.63003 | -141.22685 | 34948 ft | 490 kts | 29° |
| 2026-04-23 23:21 | 14.68876 | -141.19089 | 34950 ft | 490 kts | 29° |
| 2026-04-23 23:22 | 14.74746 | -141.15492 | 34948 ft | 490 kts | 29° |
| 2026-04-23 23:22 | 14.80615 | -141.11894 | 34946 ft | 490 kts | 29° |
| 2026-04-23 23:23 | 14.86511 | -141.08276 | 34950 ft | 491 kts | 29° |
| 2026-04-23 23:23 | 14.92393 | -141.04665 | 34951 ft | 491 kts | 29° |
| 2026-04-23 23:24 | 14.98300 | -141.01035 | 34951 ft | 491 kts | 29° |
| 2026-04-23 23:24 | 15.03948 | -140.97014 | 35237 ft | 496 kts | 34° |
| 2026-04-23 23:24 | 15.06733 | -140.94907 | 35827 ft | 492 kts | 34° |
| 2026-04-23 23:25 | 15.09488 | -140.92822 | 36413 ft | 488 kts | 34° |
| 2026-04-23 23:25 | 15.12234 | -140.90744 | 36783 ft | 487 kts | 34° |
| 2026-04-23 23:25 | 15.14979 | -140.88666 | 36957 ft | 489 kts | 34° |
| 2026-04-23 23:26 | 15.20509 | -140.84480 | 36955 ft | 489 kts | 34° |
| 2026-04-23 23:26 | 15.26010 | -140.80313 | 36955 ft | 488 kts | 34° |
| 2026-04-23 23:27 | 15.31502 | -140.76150 | 36959 ft | 489 kts | 34° |
| 2026-04-23 23:27 | 15.36980 | -140.71994 | 36956 ft | 488 kts | 34° |
| 2026-04-23 23:28 | 15.42481 | -140.67819 | 36958 ft | 488 kts | 34° |
| 2026-04-23 23:28 | 15.47985 | -140.63638 | 36959 ft | 488 kts | 34° |
| 2026-04-23 23:29 | 15.53448 | -140.59486 | 36957 ft | 487 kts | 34° |
| 2026-04-23 23:29 | 15.58940 | -140.55309 | 36954 ft | 487 kts | 34° |
| 2026-04-23 23:30 | 15.64426 | -140.51134 | 36959 ft | 488 kts | 34° |
| 2026-04-23 23:30 | 15.69889 | -140.46974 | 36966 ft | 487 kts | 34° |
| 2026-04-23 23:31 | 15.75361 | -140.42804 | 36963 ft | 487 kts | 34° |
| 2026-04-23 23:31 | 15.80830 | -140.38634 | 36967 ft | 487 kts | 34° |
| 2026-04-23 23:32 | 15.86307 | -140.34454 | 36970 ft | 487 kts | 34° |
| 2026-04-23 23:32 | 15.91746 | -140.30301 | 36966 ft | 487 kts | 34° |
| 2026-04-23 23:33 | 15.97236 | -140.26105 | 36970 ft | 486 kts | 34° |
| 2026-04-23 23:33 | 16.02701 | -140.21925 | 36970 ft | 487 kts | 34° |
| 2026-04-23 23:34 | 16.08156 | -140.17750 | 36975 ft | 487 kts | 34° |
| 2026-04-23 23:34 | 16.13605 | -140.13577 | 36977 ft | 487 kts | 34° |
| 2026-04-23 23:35 | 16.19061 | -140.09396 | 36977 ft | 487 kts | 34° |
| 2026-04-23 23:35 | 16.24531 | -140.05202 | 36978 ft | 486 kts | 34° |
| 2026-04-23 23:36 | 16.29973 | -140.01025 | 36977 ft | 487 kts | 34° |
| 2026-04-23 23:36 | 16.35448 | -139.96822 | 36978 ft | 486 kts | 34° |
| 2026-04-23 23:37 | 16.40868 | -139.92656 | 36985 ft | 486 kts | 34° |
| 2026-04-23 23:37 | 16.46323 | -139.88460 | 36988 ft | 485 kts | 34° |
| 2026-04-23 23:38 | 16.51775 | -139.84265 | 36989 ft | 486 kts | 34° |
| 2026-04-23 23:38 | 16.57208 | -139.80081 | 36989 ft | 485 kts | 34° |
| 2026-04-23 23:39 | 16.62653 | -139.75885 | 36988 ft | 485 kts | 34° |
| 2026-04-23 23:39 | 16.68075 | -139.71703 | 36990 ft | 484 kts | 34° |
| 2026-04-23 23:40 | 16.73508 | -139.67509 | 36993 ft | 485 kts | 34° |
| 2026-04-23 23:40 | 16.78965 | -139.63295 | 36990 ft | 485 kts | 34° |
| 2026-04-23 23:41 | 16.84406 | -139.59088 | 36993 ft | 485 kts | 34° |
| 2026-04-23 23:41 | 16.89817 | -139.54903 | 36996 ft | 484 kts | 34° |
| 2026-04-23 23:42 | 16.95221 | -139.50720 | 36996 ft | 484 kts | 33° |
| 2026-04-23 23:42 | 17.00634 | -139.46527 | 36999 ft | 484 kts | 34° |
| 2026-04-23 23:43 | 17.06074 | -139.42311 | 36997 ft | 484 kts | 34° |
| 2026-04-23 23:43 | 17.11488 | -139.38110 | 37000 ft | 485 kts | 34° |
| 2026-04-23 23:44 | 17.16911 | -139.33900 | 36995 ft | 485 kts | 34° |
| 2026-04-23 23:44 | 17.22308 | -139.29706 | 36994 ft | 484 kts | 34° |
| 2026-04-23 23:45 | 17.27739 | -139.25484 | 36995 ft | 484 kts | 34° |
| 2026-04-23 23:45 | 17.33168 | -139.21260 | 36998 ft | 486 kts | 34° |
| 2026-04-23 23:46 | 17.38574 | -139.17050 | 37000 ft | 485 kts | 34° |
| 2026-04-23 23:46 | 17.44023 | -139.12804 | 36999 ft | 485 kts | 34° |
| 2026-04-23 23:47 | 17.49408 | -139.08604 | 36995 ft | 486 kts | 34° |
| 2026-04-23 23:47 | 17.54833 | -139.04370 | 36992 ft | 484 kts | 34° |
| 2026-04-23 23:48 | 17.60271 | -139.00124 | 36993 ft | 486 kts | 34° |
| 2026-04-23 23:48 | 17.65670 | -138.95903 | 36993 ft | 485 kts | 34° |
| 2026-04-23 23:49 | 17.73822 | -138.89525 | 36994 ft | 484 kts | 34° |
| 2026-04-23 23:49 | 17.79215 | -138.85301 | 36996 ft | 485 kts | 34° |
| 2026-04-23 23:50 | 17.84661 | -138.81033 | 36997 ft | 485 kts | 34° |
| 2026-04-23 23:50 | 17.90053 | -138.76804 | 36994 ft | 486 kts | 34° |
| 2026-04-23 23:51 | 17.95482 | -138.72540 | 36993 ft | 485 kts | 34° |
| 2026-04-23 23:51 | 18.00894 | -138.68289 | 36996 ft | 486 kts | 34° |
| 2026-04-23 23:52 | 18.06317 | -138.64026 | 36995 ft | 486 kts | 34° |
| 2026-04-23 23:52 | 18.11764 | -138.59740 | 36999 ft | 486 kts | 34° |
| 2026-04-23 23:53 | 18.17152 | -138.55496 | 36999 ft | 486 kts | 34° |
| 2026-04-23 23:53 | 18.22583 | -138.51216 | 37003 ft | 485 kts | 34° |
| 2026-04-23 23:54 | 18.28011 | -138.46936 | 37001 ft | 487 kts | 34° |
| 2026-04-23 23:54 | 18.33445 | -138.42645 | 37008 ft | 488 kts | 33° |
| 2026-04-23 23:55 | 18.38850 | -138.38376 | 37004 ft | 489 kts | 33° |
| 2026-04-23 23:55 | 18.44318 | -138.34053 | 36999 ft | 488 kts | 34° |
| 2026-04-23 23:56 | 18.49737 | -138.29764 | 36999 ft | 487 kts | 34° |
| 2026-04-23 23:56 | 18.55144 | -138.25482 | 37002 ft | 488 kts | 34° |
| 2026-04-23 23:57 | 18.60590 | -138.21167 | 37005 ft | 488 kts | 34° |
| 2026-04-23 23:57 | 18.66046 | -138.16838 | 37003 ft | 488 kts | 34° |
| 2026-04-23 23:58 | 18.71458 | -138.12541 | 37006 ft | 488 kts | 34° |
| 2026-04-23 23:58 | 18.76890 | -138.08226 | 37010 ft | 488 kts | 34° |
| 2026-04-23 23:59 | 18.82365 | -138.03914 | 37001 ft | 487 kts | 31° |
| 2026-04-23 23:59 | 18.87975 | -137.99986 | 37013 ft | 487 kts | 30° |
| 2026-04-24 00:00 | 18.93645 | -137.96027 | 37013 ft | 487 kts | 30° |
| 2026-04-24 00:00 | 18.99319 | -137.92042 | 37013 ft | 489 kts | 30° |
| 2026-04-24 00:01 | 19.05009 | -137.88034 | 37014 ft | 490 kts | 30° |
| 2026-04-24 00:01 | 19.10646 | -137.84056 | 37016 ft | 488 kts | 30° |
| 2026-04-24 00:02 | 19.16326 | -137.80040 | 37023 ft | 490 kts | 30° |
| 2026-04-24 00:02 | 19.22008 | -137.76019 | 37027 ft | 489 kts | 30° |
| 2026-04-24 00:03 | 19.27686 | -137.71997 | 37040 ft | 492 kts | 30° |
| 2026-04-24 00:03 | 19.33376 | -137.67961 | 37044 ft | 492 kts | 30° |
| 2026-04-24 00:04 | 19.39054 | -137.63930 | 37045 ft | 491 kts | 30° |
| 2026-04-24 00:04 | 19.44740 | -137.59891 | 37048 ft | 493 kts | 30° |
| 2026-04-24 00:05 | 19.50427 | -137.55847 | 37051 ft | 493 kts | 30° |
| 2026-04-24 00:05 | 19.56129 | -137.51790 | 37053 ft | 492 kts | 30° |
| 2026-04-24 00:06 | 19.61848 | -137.47716 | 37051 ft | 492 kts | 30° |
| 2026-04-24 00:06 | 19.67531 | -137.43665 | 37050 ft | 494 kts | 30° |
| 2026-04-24 00:07 | 19.73248 | -137.39584 | 37041 ft | 493 kts | 30° |
| 2026-04-24 00:07 | 19.78931 | -137.35527 | 37045 ft | 494 kts | 30° |
| 2026-04-24 00:08 | 19.84619 | -137.31461 | 37027 ft | 493 kts | 30° |
| 2026-04-24 00:08 | 19.90345 | -137.27364 | 37030 ft | 494 kts | 30° |
| 2026-04-24 00:09 | 19.96019 | -137.23302 | 37032 ft | 495 kts | 30° |
| 2026-04-24 00:09 | 20.01754 | -137.19191 | 37030 ft | 494 kts | 30° |
| 2026-04-24 00:10 | 20.07457 | -137.15100 | 37031 ft | 495 kts | 30° |
| 2026-04-24 00:10 | 20.13174 | -137.10996 | 37043 ft | 495 kts | 30° |
| 2026-04-24 00:11 | 20.18876 | -137.06897 | 37052 ft | 495 kts | 30° |
| 2026-04-24 00:11 | 20.24615 | -137.02769 | 37053 ft | 495 kts | 30° |
| 2026-04-24 00:12 | 20.30341 | -136.98648 | 37054 ft | 497 kts | 30° |
| 2026-04-24 00:12 | 20.36045 | -136.94537 | 37054 ft | 496 kts | 30° |
| 2026-04-24 00:13 | 20.41778 | -136.90402 | 37055 ft | 497 kts | 30° |
| 2026-04-24 00:13 | 20.47498 | -136.86273 | 37057 ft | 497 kts | 30° |
| 2026-04-24 00:14 | 20.53252 | -136.82115 | 37056 ft | 498 kts | 30° |
| 2026-04-24 00:14 | 20.59011 | -136.77949 | 37057 ft | 498 kts | 30° |
| 2026-04-24 00:15 | 20.64738 | -136.73805 | 37057 ft | 499 kts | 30° |
| 2026-04-24 00:15 | 20.70505 | -136.69626 | 37058 ft | 498 kts | 30° |
| 2026-04-24 00:16 | 20.76249 | -136.65460 | 37059 ft | 500 kts | 30° |
| 2026-04-24 00:16 | 20.82011 | -136.61278 | 37059 ft | 499 kts | 30° |
| 2026-04-24 00:17 | 20.87733 | -136.57120 | 37060 ft | 499 kts | 30° |
| 2026-04-24 00:17 | 20.93494 | -136.52930 | 37061 ft | 500 kts | 30° |
| 2026-04-24 00:18 | 20.99285 | -136.48715 | 37062 ft | 502 kts | 30° |
| 2026-04-24 00:18 | 21.05036 | -136.44524 | 37066 ft | 500 kts | 30° |
| 2026-04-24 00:19 | 21.10829 | -136.40299 | 37067 ft | 502 kts | 30° |
| 2026-04-24 00:19 | 21.16573 | -136.36105 | 37064 ft | 501 kts | 30° |
| 2026-04-24 00:20 | 21.22348 | -136.31885 | 37054 ft | 501 kts | 30° |
| 2026-04-24 00:20 | 21.28105 | -136.27673 | 37055 ft | 501 kts | 30° |
| 2026-04-24 00:21 | 21.33856 | -136.23463 | 37058 ft | 500 kts | 30° |
| 2026-04-24 00:21 | 21.39643 | -136.19222 | 37065 ft | 502 kts | 30° |
| 2026-04-24 00:22 | 21.45390 | -136.15006 | 37063 ft | 502 kts | 30° |
| 2026-04-24 00:22 | 21.51185 | -136.10751 | 37063 ft | 503 kts | 30° |
| 2026-04-24 00:23 | 21.56944 | -136.06517 | 37064 ft | 501 kts | 30° |
| 2026-04-24 00:23 | 21.62735 | -136.02257 | 37071 ft | 503 kts | 30° |
| 2026-04-24 00:24 | 21.68530 | -135.97989 | 37075 ft | 503 kts | 30° |
| 2026-04-24 00:24 | 21.74286 | -135.93745 | 37075 ft | 502 kts | 30° |
| 2026-04-24 00:25 | 21.80046 | -135.89494 | 37080 ft | 503 kts | 30° |
| 2026-04-24 00:25 | 21.85847 | -135.85210 | 37082 ft | 503 kts | 30° |
| 2026-04-24 00:26 | 21.91592 | -135.80962 | 37077 ft | 503 kts | 30° |
| 2026-04-24 00:26 | 21.97378 | -135.76678 | 37079 ft | 503 kts | 30° |
| 2026-04-24 00:27 | 22.03177 | -135.72383 | 37081 ft | 504 kts | 30° |
| 2026-04-24 00:27 | 22.08931 | -135.68115 | 37081 ft | 504 kts | 30° |
| 2026-04-24 00:28 | 22.14706 | -135.63829 | 37083 ft | 502 kts | 30° |
| 2026-04-24 00:28 | 22.20475 | -135.59541 | 37084 ft | 504 kts | 30° |
| 2026-04-24 00:29 | 22.26237 | -135.55255 | 37084 ft | 504 kts | 30° |
| 2026-04-24 00:29 | 22.32043 | -135.50931 | 37086 ft | 505 kts | 30° |
| 2026-04-24 00:30 | 22.37823 | -135.46622 | 37089 ft | 505 kts | 30° |
| 2026-04-24 00:30 | 22.43627 | -135.42291 | 37092 ft | 505 kts | 30° |
| 2026-04-24 00:31 | 22.49400 | -135.37979 | 37093 ft | 505 kts | 30° |
| 2026-04-24 00:31 | 22.55192 | -135.33649 | 37083 ft | 504 kts | 30° |
| 2026-04-24 00:32 | 22.60934 | -135.29350 | 37085 ft | 505 kts | 30° |
| 2026-04-24 00:32 | 22.66750 | -135.24992 | 37085 ft | 506 kts | 30° |
| 2026-04-24 00:33 | 22.72540 | -135.20648 | 37085 ft | 506 kts | 30° |
| 2026-04-24 00:33 | 22.78315 | -135.16313 | 37091 ft | 505 kts | 30° |
| 2026-04-24 00:34 | 22.84098 | -135.11966 | 37092 ft | 506 kts | 30° |
| 2026-04-24 00:34 | 22.89866 | -135.07625 | 37093 ft | 506 kts | 30° |
| 2026-04-24 00:35 | 22.95654 | -135.03265 | 37097 ft | 506 kts | 30° |
| 2026-04-24 00:35 | 23.01175 | -134.98430 | 37096 ft | 512 kts | 43° |
| 2026-04-24 00:36 | 23.05994 | -134.92749 | 37101 ft | 513 kts | 45° |
| 2026-04-24 00:36 | 23.10815 | -134.86978 | 37098 ft | 514 kts | 45° |
| 2026-04-24 00:37 | 23.15592 | -134.81244 | 37097 ft | 515 kts | 45° |
| 2026-04-24 00:37 | 23.20409 | -134.75450 | 37100 ft | 514 kts | 45° |
| 2026-04-24 00:38 | 23.25180 | -134.69702 | 37102 ft | 514 kts | 45° |
| 2026-04-24 00:38 | 23.29986 | -134.63904 | 37103 ft | 514 kts | 44° |
| 2026-04-24 00:39 | 23.34758 | -134.58139 | 37104 ft | 514 kts | 44° |
| 2026-04-24 00:39 | 23.39549 | -134.52344 | 37105 ft | 515 kts | 44° |
| 2026-04-24 00:40 | 23.44356 | -134.46521 | 37104 ft | 515 kts | 44° |
| 2026-04-24 00:40 | 23.49122 | -134.40742 | 37107 ft | 515 kts | 44° |
| 2026-04-24 00:41 | 23.53901 | -134.34941 | 37107 ft | 515 kts | 45° |
| 2026-04-24 00:41 | 23.58702 | -134.29106 | 37091 ft | 514 kts | 45° |
| 2026-04-24 00:42 | 23.63460 | -134.23317 | 37090 ft | 515 kts | 45° |
| 2026-04-24 00:42 | 23.68238 | -134.17496 | 37095 ft | 516 kts | 45° |
| 2026-04-24 00:43 | 23.73047 | -134.11629 | 37097 ft | 516 kts | 45° |
| 2026-04-24 00:43 | 23.77829 | -134.05789 | 37097 ft | 516 kts | 45° |
| 2026-04-24 00:44 | 23.82585 | -133.99974 | 37096 ft | 515 kts | 45° |
| 2026-04-24 00:44 | 23.87386 | -133.94098 | 37101 ft | 516 kts | 45° |
| 2026-04-24 00:45 | 23.92184 | -133.88217 | 37100 ft | 517 kts | 45° |
| 2026-04-24 00:45 | 23.96933 | -133.82388 | 37101 ft | 515 kts | 45° |
| 2026-04-24 00:46 | 24.01718 | -133.76511 | 37101 ft | 515 kts | 45° |
| 2026-04-24 00:46 | 24.06485 | -133.70647 | 37102 ft | 517 kts | 45° |
| 2026-04-24 00:47 | 24.11293 | -133.64726 | 37099 ft | 517 kts | 45° |
| 2026-04-24 00:47 | 24.16060 | -133.58849 | 37105 ft | 517 kts | 45° |
| 2026-04-24 00:48 | 24.20847 | -133.52937 | 37106 ft | 517 kts | 45° |
| 2026-04-24 00:48 | 24.25615 | -133.47044 | 37108 ft | 517 kts | 45° |
| 2026-04-24 00:49 | 24.30373 | -133.41156 | 37108 ft | 517 kts | 45° |
| 2026-04-24 00:49 | 24.35134 | -133.35257 | 37112 ft | 518 kts | 45° |
| 2026-04-24 00:50 | 24.39907 | -133.29335 | 37103 ft | 518 kts | 45° |
| 2026-04-24 00:50 | 24.44688 | -133.23398 | 37103 ft | 518 kts | 45° |
| 2026-04-24 00:51 | 24.49452 | -133.17473 | 37103 ft | 518 kts | 45° |
| 2026-04-24 00:51 | 24.54231 | -133.11520 | 37104 ft | 519 kts | 45° |
| 2026-04-24 00:52 | 24.58982 | -133.05597 | 37106 ft | 518 kts | 45° |
| 2026-04-24 00:52 | 24.63741 | -132.99657 | 37106 ft | 518 kts | 45° |
| 2026-04-24 00:53 | 24.68525 | -132.93675 | 37111 ft | 518 kts | 45° |
| 2026-04-24 00:53 | 24.73268 | -132.87740 | 37112 ft | 519 kts | 45° |
| 2026-04-24 00:54 | 24.78047 | -132.81752 | 37115 ft | 519 kts | 45° |
| 2026-04-24 00:54 | 24.82801 | -132.75787 | 37117 ft | 520 kts | 45° |
| 2026-04-24 00:55 | 24.87568 | -132.69798 | 37119 ft | 520 kts | 46° |
| 2026-04-24 00:55 | 24.92312 | -132.63831 | 37124 ft | 521 kts | 46° |
| 2026-04-24 00:56 | 24.97079 | -132.57826 | 37124 ft | 520 kts | 45° |
| 2026-04-24 00:56 | 25.01815 | -132.51855 | 37126 ft | 520 kts | 46° |
| 2026-04-24 00:57 | 25.06573 | -132.45847 | 37127 ft | 520 kts | 45° |
| 2026-04-24 00:58 | 25.13734 | -132.36791 | 37124 ft | 520 kts | 46° |
| 2026-04-24 00:58 | 25.18474 | -132.30785 | 37111 ft | 521 kts | 46° |
| 2026-04-24 00:59 | 25.23214 | -132.24774 | 37110 ft | 522 kts | 46° |
| 2026-04-24 00:59 | 25.27981 | -132.18718 | 37110 ft | 522 kts | 46° |
| 2026-04-24 01:00 | 25.32765 | -132.12688 | 37113 ft | 521 kts | 45° |
| 2026-04-24 01:00 | 25.37587 | -132.06705 | 37114 ft | 522 kts | 46° |
| 2026-04-24 01:01 | 25.42419 | -132.00696 | 37117 ft | 522 kts | 46° |
| 2026-04-24 01:01 | 25.47245 | -131.94682 | 37116 ft | 522 kts | 45° |
| 2026-04-24 01:02 | 25.52072 | -131.88660 | 37120 ft | 522 kts | 46° |
| 2026-04-24 01:02 | 25.56894 | -131.82632 | 37120 ft | 523 kts | 46° |
| 2026-04-24 01:03 | 25.61709 | -131.76608 | 37122 ft | 523 kts | 46° |
| 2026-04-24 01:03 | 25.66510 | -131.70590 | 37121 ft | 525 kts | 46° |
| 2026-04-24 01:04 | 25.71332 | -131.64539 | 37124 ft | 523 kts | 46° |
| 2026-04-24 01:04 | 25.76186 | -131.58440 | 37122 ft | 525 kts | 46° |
| 2026-04-24 01:05 | 25.81003 | -131.52379 | 37126 ft | 524 kts | 46° |
| 2026-04-24 01:05 | 25.85832 | -131.46295 | 37128 ft | 524 kts | 46° |
| 2026-04-24 01:06 | 25.90647 | -131.40221 | 37130 ft | 524 kts | 46° |
| 2026-04-24 01:06 | 25.95448 | -131.34154 | 37127 ft | 525 kts | 46° |
| 2026-04-24 01:07 | 26.00250 | -131.28079 | 37117 ft | 526 kts | 46° |
| 2026-04-24 01:07 | 26.05102 | -131.21933 | 37121 ft | 526 kts | 46° |
| 2026-04-24 01:08 | 26.09912 | -131.15832 | 37121 ft | 526 kts | 46° |
| 2026-04-24 01:08 | 26.14709 | -131.09738 | 37115 ft | 525 kts | 46° |
| 2026-04-24 01:09 | 26.19528 | -131.03609 | 37113 ft | 526 kts | 46° |
| 2026-04-24 01:09 | 26.24339 | -130.97481 | 37124 ft | 525 kts | 46° |
| 2026-04-24 01:10 | 26.29130 | -130.91370 | 37122 ft | 524 kts | 46° |
| 2026-04-24 01:10 | 26.33932 | -130.85237 | 37134 ft | 525 kts | 46° |
| 2026-04-24 01:11 | 26.38702 | -130.79137 | 37130 ft | 524 kts | 46° |
| 2026-04-24 01:11 | 26.43510 | -130.72980 | 37138 ft | 525 kts | 46° |
| 2026-04-24 01:12 | 26.48307 | -130.66827 | 37135 ft | 526 kts | 46° |
| 2026-04-24 01:12 | 26.53091 | -130.60684 | 37134 ft | 526 kts | 47° |
| 2026-04-24 01:13 | 26.57879 | -130.54526 | 37134 ft | 526 kts | 47° |
| 2026-04-24 01:13 | 26.62692 | -130.48328 | 37134 ft | 526 kts | 46° |
| 2026-04-24 01:14 | 26.67467 | -130.42171 | 37142 ft | 526 kts | 47° |
| 2026-04-24 01:14 | 26.72272 | -130.35965 | 37145 ft | 527 kts | 47° |
| 2026-04-24 01:15 | 26.77040 | -130.29799 | 37135 ft | 525 kts | 47° |
| 2026-04-24 01:15 | 26.81813 | -130.23618 | 37130 ft | 526 kts | 47° |
| 2026-04-24 01:16 | 26.86606 | -130.17401 | 37133 ft | 527 kts | 47° |
| 2026-04-24 01:16 | 26.91382 | -130.11200 | 37137 ft | 528 kts | 47° |
| 2026-04-24 01:17 | 26.96172 | -130.04970 | 37143 ft | 528 kts | 47° |
| 2026-04-24 01:17 | 27.00833 | -129.98644 | 37149 ft | 528 kts | 53° |
| 2026-04-24 01:18 | 27.05091 | -129.91972 | 37143 ft | 527 kts | 53° |
| 2026-04-24 01:18 | 27.09359 | -129.85234 | 37140 ft | 530 kts | 53° |
| 2026-04-24 01:19 | 27.13601 | -129.78529 | 37139 ft | 529 kts | 53° |
| 2026-04-24 01:19 | 27.17874 | -129.71768 | 37150 ft | 530 kts | 53° |
| 2026-04-24 01:20 | 27.22116 | -129.65044 | 37150 ft | 532 kts | 53° |
| 2026-04-24 01:20 | 27.26388 | -129.58263 | 37154 ft | 529 kts | 53° |
| 2026-04-24 01:21 | 27.30650 | -129.51488 | 37159 ft | 531 kts | 53° |
| 2026-04-24 01:21 | 27.34910 | -129.44704 | 37160 ft | 530 kts | 53° |
| 2026-04-24 01:22 | 27.39150 | -129.37944 | 37155 ft | 532 kts | 53° |
| 2026-04-24 01:22 | 27.43395 | -129.31163 | 37140 ft | 531 kts | 54° |
| 2026-04-24 01:23 | 27.47638 | -129.24376 | 37143 ft | 532 kts | 54° |
| 2026-04-24 01:23 | 27.51902 | -129.17546 | 37148 ft | 532 kts | 54° |
| 2026-04-24 01:24 | 27.56145 | -129.10738 | 37148 ft | 533 kts | 54° |
| 2026-04-24 01:24 | 27.60408 | -129.03888 | 37149 ft | 533 kts | 54° |
| 2026-04-24 01:25 | 27.64657 | -128.97049 | 37152 ft | 532 kts | 54° |
| 2026-04-24 01:25 | 27.68877 | -128.90245 | 37153 ft | 533 kts | 54° |
| 2026-04-24 01:26 | 27.73118 | -128.83398 | 37155 ft | 532 kts | 54° |
| 2026-04-24 01:26 | 27.77359 | -128.76541 | 37157 ft | 534 kts | 54° |
| 2026-04-24 01:27 | 27.81607 | -128.69659 | 37161 ft | 534 kts | 54° |
| 2026-04-24 01:27 | 27.85849 | -128.62779 | 37164 ft | 535 kts | 54° |
| 2026-04-24 01:28 | 27.90108 | -128.55858 | 37167 ft | 536 kts | 54° |
| 2026-04-24 01:28 | 27.94337 | -128.48976 | 37168 ft | 535 kts | 54° |
| 2026-04-24 01:29 | 27.98587 | -128.42049 | 37169 ft | 535 kts | 54° |
| 2026-04-24 01:29 | 28.02816 | -128.35144 | 37170 ft | 534 kts | 54° |
| 2026-04-24 01:30 | 28.07048 | -128.28224 | 37157 ft | 536 kts | 54° |
| 2026-04-24 01:30 | 28.11290 | -128.21275 | 37151 ft | 536 kts | 54° |
| 2026-04-24 01:31 | 28.15513 | -128.14346 | 37151 ft | 535 kts | 54° |
| 2026-04-24 01:31 | 28.19727 | -128.07423 | 37152 ft | 536 kts | 55° |
| 2026-04-24 01:32 | 28.23935 | -128.00497 | 37154 ft | 535 kts | 55° |
| 2026-04-24 01:32 | 28.28182 | -127.93497 | 37156 ft | 537 kts | 55° |
| 2026-04-24 01:33 | 28.32380 | -127.86565 | 37157 ft | 537 kts | 55° |
| 2026-04-24 01:33 | 28.36634 | -127.79529 | 37158 ft | 538 kts | 55° |
| 2026-04-24 01:34 | 28.40858 | -127.72530 | 37161 ft | 537 kts | 54° |
| 2026-04-24 01:34 | 28.45070 | -127.65541 | 37161 ft | 538 kts | 54° |
| 2026-04-24 01:35 | 28.49276 | -127.58551 | 37160 ft | 538 kts | 55° |
| 2026-04-24 01:35 | 28.53496 | -127.51526 | 37160 ft | 538 kts | 54° |
| 2026-04-24 01:36 | 28.57719 | -127.44485 | 37161 ft | 539 kts | 54° |
| 2026-04-24 01:36 | 28.61931 | -127.37448 | 37163 ft | 540 kts | 55° |
| 2026-04-24 01:37 | 28.66146 | -127.30394 | 37147 ft | 538 kts | 55° |
| 2026-04-24 01:37 | 28.70348 | -127.23353 | 37148 ft | 541 kts | 55° |
| 2026-04-24 01:38 | 28.74563 | -127.16278 | 37154 ft | 541 kts | 55° |
| 2026-04-24 01:38 | 28.78790 | -127.09170 | 37157 ft | 540 kts | 55° |
| 2026-04-24 01:39 | 28.82987 | -127.02101 | 37159 ft | 541 kts | 55° |
| 2026-04-24 01:39 | 28.87204 | -126.94988 | 37159 ft | 542 kts | 55° |
| 2026-04-24 01:40 | 28.91000 | -126.88574 | 37155 ft | 542 kts | 55° |
| 2026-04-24 01:40 | 28.95236 | -126.81403 | 37166 ft | 545 kts | 55° |
| 2026-04-24 01:41 | 28.99450 | -126.74258 | 37161 ft | 543 kts | 55° |
| 2026-04-24 01:41 | 29.03683 | -126.67069 | 37162 ft | 544 kts | 55° |
| 2026-04-24 01:42 | 29.07882 | -126.59926 | 37160 ft | 543 kts | 55° |
| 2026-04-24 01:42 | 29.12085 | -126.52762 | 37151 ft | 544 kts | 55° |
| 2026-04-24 01:43 | 29.16286 | -126.45589 | 37154 ft | 543 kts | 55° |
| 2026-04-24 01:43 | 29.20468 | -126.38438 | 37151 ft | 543 kts | 55° |
| 2026-04-24 01:44 | 29.24679 | -126.31222 | 37136 ft | 545 kts | 56° |
| 2026-04-24 01:44 | 29.28879 | -126.24014 | 37133 ft | 543 kts | 55° |
| 2026-04-24 01:45 | 29.33076 | -126.16798 | 37132 ft | 544 kts | 55° |
| 2026-04-24 01:45 | 29.37271 | -126.09573 | 37134 ft | 546 kts | 55° |
| 2026-04-24 01:46 | 29.41466 | -126.02336 | 37135 ft | 546 kts | 55° |
| 2026-04-24 01:46 | 29.45645 | -125.95113 | 37133 ft | 544 kts | 55° |
| 2026-04-24 01:47 | 29.49833 | -125.87862 | 37138 ft | 547 kts | 55° |
| 2026-04-24 01:47 | 29.54013 | -125.80611 | 37140 ft | 545 kts | 55° |
| 2026-04-24 01:48 | 29.58213 | -125.73314 | 37140 ft | 547 kts | 55° |
| 2026-04-24 01:48 | 29.62392 | -125.66040 | 37144 ft | 545 kts | 55° |
| 2026-04-24 01:49 | 29.66581 | -125.58737 | 37144 ft | 547 kts | 55° |
| 2026-04-24 01:49 | 29.70768 | -125.51423 | 37147 ft | 547 kts | 55° |
| 2026-04-24 01:50 | 29.74950 | -125.44105 | 37148 ft | 549 kts | 54° |
| 2026-04-24 01:50 | 29.79117 | -125.36799 | 37153 ft | 547 kts | 54° |
| 2026-04-24 01:51 | 29.83285 | -125.29479 | 37131 ft | 548 kts | 55° |
| 2026-04-24 01:51 | 29.87470 | -125.22116 | 37135 ft | 548 kts | 55° |
| 2026-04-24 01:52 | 29.91634 | -125.14776 | 37135 ft | 551 kts | 55° |
| 2026-04-24 01:52 | 29.95819 | -125.07385 | 37135 ft | 549 kts | 55° |
| 2026-04-24 01:53 | 29.99921 | -124.99970 | 37140 ft | 552 kts | 60° |
| 2026-04-24 01:53 | 30.03522 | -124.92153 | 37143 ft | 551 kts | 62° |
| 2026-04-24 01:54 | 30.07050 | -124.84353 | 37141 ft | 551 kts | 62° |
| 2026-04-24 01:54 | 30.10602 | -124.76475 | 37138 ft | 551 kts | 62° |
| 2026-04-24 01:55 | 30.14121 | -124.68653 | 37143 ft | 551 kts | 62° |
| 2026-04-24 01:55 | 30.17668 | -124.60747 | 37139 ft | 552 kts | 62° |
| 2026-04-24 01:56 | 30.21182 | -124.52898 | 37145 ft | 549 kts | 62° |
| 2026-04-24 01:56 | 30.24663 | -124.45105 | 37146 ft | 551 kts | 62° |
| 2026-04-24 01:57 | 30.28177 | -124.37222 | 37142 ft | 551 kts | 61° |
| 2026-04-24 01:57 | 30.31687 | -124.29331 | 37132 ft | 550 kts | 62° |
| 2026-04-24 01:58 | 30.35185 | -124.21452 | 37128 ft | 551 kts | 62° |
| 2026-04-24 01:58 | 30.38663 | -124.13601 | 37133 ft | 550 kts | 62° |
| 2026-04-24 01:59 | 30.42176 | -124.05654 | 37137 ft | 551 kts | 62° |
| 2026-04-24 01:59 | 30.45647 | -123.97787 | 37142 ft | 552 kts | 62° |
| 2026-04-24 02:00 | 30.49147 | -123.89836 | 37135 ft | 550 kts | 62° |
| 2026-04-24 02:00 | 30.52629 | -123.81910 | 37140 ft | 550 kts | 62° |
| 2026-04-24 02:01 | 30.56081 | -123.74037 | 37136 ft | 550 kts | 62° |
| 2026-04-24 02:01 | 30.59568 | -123.66067 | 37130 ft | 550 kts | 62° |
| 2026-04-24 02:02 | 30.63026 | -123.58144 | 37136 ft | 551 kts | 61° |
| 2026-04-24 02:02 | 30.66477 | -123.50223 | 37139 ft | 551 kts | 62° |
| 2026-04-24 02:03 | 30.71655 | -123.38306 | 37136 ft | 550 kts | 61° |
| 2026-04-24 02:03 | 30.75089 | -123.30383 | 37115 ft | 551 kts | 62° |
| 2026-04-24 02:04 | 30.78540 | -123.22401 | 37117 ft | 553 kts | 62° |
| 2026-04-24 02:04 | 30.81982 | -123.14424 | 37118 ft | 553 kts | 62° |
| 2026-04-24 02:05 | 30.85422 | -123.06435 | 37117 ft | 552 kts | 62° |
| 2026-04-24 02:05 | 30.88864 | -122.98424 | 37119 ft | 554 kts | 62° |
| 2026-04-24 02:06 | 30.92287 | -122.90440 | 37114 ft | 552 kts | 62° |
| 2026-04-24 02:06 | 30.95715 | -122.82427 | 37114 ft | 552 kts | 62° |
| 2026-04-24 02:07 | 30.99139 | -122.74406 | 37112 ft | 553 kts | 61° |
| 2026-04-24 02:07 | 31.02556 | -122.66386 | 37110 ft | 552 kts | 61° |
| 2026-04-24 02:08 | 31.05980 | -122.58331 | 37118 ft | 554 kts | 62° |
| 2026-04-24 02:08 | 31.09371 | -122.50335 | 37115 ft | 553 kts | 62° |
| 2026-04-24 02:09 | 31.12780 | -122.42280 | 37101 ft | 552 kts | 62° |
| 2026-04-24 02:09 | 31.16157 | -122.34281 | 37092 ft | 552 kts | 62° |
| 2026-04-24 02:10 | 31.19561 | -122.26203 | 37082 ft | 551 kts | 62° |
| 2026-04-24 02:10 | 31.22946 | -122.18151 | 37077 ft | 552 kts | 62° |
| 2026-04-24 02:11 | 31.26321 | -122.10107 | 37073 ft | 553 kts | 62° |
| 2026-04-24 02:11 | 31.29709 | -122.02013 | 37067 ft | 551 kts | 62° |
| 2026-04-24 02:12 | 31.33064 | -121.93979 | 37067 ft | 552 kts | 62° |
| 2026-04-24 02:12 | 31.36437 | -121.85884 | 37073 ft | 551 kts | 62° |
| 2026-04-24 02:13 | 31.39791 | -121.77820 | 37077 ft | 553 kts | 62° |
| 2026-04-24 02:13 | 31.43140 | -121.69746 | 37069 ft | 551 kts | 62° |
| 2026-04-24 02:14 | 31.46491 | -121.61653 | 37080 ft | 553 kts | 62° |
| 2026-04-24 02:14 | 31.49827 | -121.53574 | 37077 ft | 550 kts | 62° |
| 2026-04-24 02:15 | 31.53140 | -121.45536 | 37075 ft | 551 kts | 62° |
| 2026-04-24 02:15 | 31.56376 | -121.37365 | 37078 ft | 552 kts | 65° |
| 2026-04-24 02:16 | 31.59279 | -121.29046 | 37057 ft | 552 kts | 66° |
| 2026-04-24 02:16 | 31.62164 | -121.20719 | 37057 ft | 552 kts | 66° |
| 2026-04-24 02:17 | 31.65046 | -121.12381 | 37057 ft | 552 kts | 66° |
| 2026-04-24 02:17 | 31.67934 | -121.04006 | 37056 ft | 552 kts | 66° |
| 2026-04-24 02:18 | 31.70809 | -120.95647 | 37057 ft | 553 kts | 66° |
| 2026-04-24 02:18 | 31.73678 | -120.87287 | 37056 ft | 552 kts | 66° |
| 2026-04-24 02:19 | 31.76525 | -120.78968 | 37056 ft | 552 kts | 66° |
| 2026-04-24 02:19 | 31.79379 | -120.70606 | 37051 ft | 550 kts | 66° |
| 2026-04-24 02:20 | 31.82222 | -120.62260 | 37055 ft | 554 kts | 66° |
| 2026-04-24 02:20 | 31.85067 | -120.53882 | 37053 ft | 550 kts | 66° |
| 2026-04-24 02:21 | 31.87904 | -120.45511 | 37052 ft | 550 kts | 66° |
| 2026-04-24 02:21 | 31.90730 | -120.37150 | 37054 ft | 551 kts | 66° |
| 2026-04-24 02:22 | 31.93724 | -120.28948 | 37033 ft | 544 kts | 58° |
| 2026-04-24 02:22 | 31.98191 | -120.21808 | 37036 ft | 537 kts | 42° |
| 2026-04-24 02:23 | 32.03301 | -120.15352 | 37032 ft | 536 kts | 41° |
| 2026-04-24 02:23 | 32.08379 | -120.08949 | 37035 ft | 533 kts | 41° |
| 2026-04-24 02:24 | 32.13431 | -120.02567 | 37026 ft | 535 kts | 41° |
| 2026-04-24 02:24 | 32.18509 | -119.96136 | 37013 ft | 532 kts | 41° |
| 2026-04-24 02:25 | 32.23560 | -119.89726 | 37025 ft | 534 kts | 41° |
| 2026-04-24 02:25 | 32.28582 | -119.83340 | 37023 ft | 531 kts | 41° |
| 2026-04-24 02:26 | 32.33623 | -119.76921 | 37026 ft | 533 kts | 41° |
| 2026-04-24 02:26 | 32.38648 | -119.70508 | 37022 ft | 532 kts | 41° |
| 2026-04-24 02:27 | 32.41163 | -119.67293 | 36741 ft | 527 kts | 41° |
| 2026-04-24 02:27 | 32.43644 | -119.64120 | 35724 ft | 533 kts | 41° |
| 2026-04-24 02:27 | 32.46170 | -119.60890 | 34743 ft | 538 kts | 42° |
| 2026-04-24 02:27 | 32.48701 | -119.57648 | 33861 ft | 540 kts | 42° |
| 2026-04-24 02:28 | 32.51265 | -119.54360 | 32998 ft | 541 kts | 42° |
| 2026-04-24 02:28 | 32.53823 | -119.51077 | 32063 ft | 543 kts | 43° |
| 2026-04-24 02:28 | 32.56382 | -119.47788 | 31134 ft | 544 kts | 43° |
| 2026-04-24 02:28 | 32.58927 | -119.44514 | 30386 ft | 540 kts | 43° |
| 2026-04-24 02:29 | 32.61460 | -119.41250 | 29871 ft | 532 kts | 43° |
| 2026-04-24 02:29 | 32.63945 | -119.38048 | 29308 ft | 525 kts | 43° |
| 2026-04-24 02:29 | 32.66396 | -119.34885 | 28706 ft | 519 kts | 44° |
| 2026-04-24 02:29 | 32.68843 | -119.31726 | 28086 ft | 514 kts | 44° |
| 2026-04-24 02:30 | 32.71221 | -119.28655 | 27492 ft | 508 kts | 44° |
| 2026-04-24 02:30 | 32.73596 | -119.25585 | 26908 ft | 503 kts | 44° |
| 2026-04-24 02:30 | 32.75940 | -119.22553 | 26327 ft | 498 kts | 44° |
| 2026-04-24 02:30 | 32.78283 | -119.19520 | 25754 ft | 493 kts | 44° |
| 2026-04-24 02:31 | 32.80577 | -119.16546 | 25199 ft | 488 kts | 44° |
| 2026-04-24 02:31 | 32.82839 | -119.13614 | 24640 ft | 483 kts | 44° |
| 2026-04-24 02:31 | 32.85117 | -119.10657 | 24085 ft | 479 kts | 44° |
| 2026-04-24 02:31 | 32.87344 | -119.07764 | 23535 ft | 475 kts | 44° |
| 2026-04-24 02:32 | 32.89566 | -119.04876 | 22977 ft | 471 kts | 44° |
| 2026-04-24 02:32 | 32.91771 | -119.02008 | 22430 ft | 467 kts | 44° |
| 2026-04-24 02:32 | 32.93951 | -118.99168 | 21851 ft | 461 kts | 44° |
| 2026-04-24 02:32 | 32.96085 | -118.96387 | 21317 ft | 451 kts | 44° |
| 2026-04-24 02:33 | 32.98174 | -118.93662 | 20811 ft | 447 kts | 45° |
| 2026-04-24 02:33 | 33.00282 | -118.90912 | 20244 ft | 445 kts | 44° |
| 2026-04-24 02:33 | 33.02351 | -118.88210 | 19679 ft | 442 kts | 44° |
| 2026-04-24 02:33 | 33.04403 | -118.85529 | 19137 ft | 439 kts | 45° |
| 2026-04-24 02:34 | 33.06463 | -118.82834 | 18569 ft | 436 kts | 45° |
| 2026-04-24 02:34 | 33.08487 | -118.80186 | 18000 ft | 433 kts | 45° |
| 2026-04-24 02:34 | 33.10510 | -118.77535 | 17468 ft | 429 kts | 44° |
| 2026-04-24 02:34 | 33.12515 | -118.74906 | 16923 ft | 425 kts | 45° |
| 2026-04-24 02:35 | 33.14516 | -118.72280 | 16398 ft | 422 kts | 45° |
| 2026-04-24 02:35 | 33.16473 | -118.69711 | 16035 ft | 413 kts | 45° |
| 2026-04-24 02:35 | 33.18361 | -118.67229 | 16006 ft | 396 kts | 45° |
| 2026-04-24 02:35 | 33.20141 | -118.64803 | 16007 ft | 380 kts | 46° |
| 2026-04-24 02:36 | 33.21816 | -118.62439 | 16002 ft | 373 kts | 46° |
| 2026-04-24 02:36 | 33.23510 | -118.60051 | 16012 ft | 379 kts | 46° |
| 2026-04-24 02:36 | 33.25225 | -118.57634 | 16008 ft | 378 kts | 46° |
| 2026-04-24 02:36 | 33.26931 | -118.55231 | 15995 ft | 377 kts | 46° |
| 2026-04-24 02:37 | 33.28630 | -118.52838 | 16005 ft | 378 kts | 46° |
| 2026-04-24 02:37 | 33.30336 | -118.50436 | 16004 ft | 378 kts | 46° |
| 2026-04-24 02:37 | 33.31914 | -118.47938 | 16006 ft | 381 kts | 56° |
| 2026-04-24 02:37 | 33.33071 | -118.45084 | 16007 ft | 384 kts | 68° |
| 2026-04-24 02:38 | 33.33743 | -118.42000 | 16019 ft | 386 kts | 80° |
| 2026-04-24 02:38 | 33.33902 | -118.38784 | 16010 ft | 388 kts | 91° |
| 2026-04-24 02:38 | 33.33749 | -118.35564 | 16011 ft | 387 kts | 93° |
| 2026-04-24 02:38 | 33.33568 | -118.32340 | 16002 ft | 388 kts | 94° |
| 2026-04-24 02:39 | 33.33387 | -118.29144 | 15998 ft | 386 kts | 94° |
| 2026-04-24 02:39 | 33.33203 | -118.25913 | 15995 ft | 387 kts | 94° |
| 2026-04-24 02:39 | 33.33022 | -118.22724 | 15992 ft | 387 kts | 94° |
| 2026-04-24 02:39 | 33.32838 | -118.19504 | 15992 ft | 387 kts | 94° |
| 2026-04-24 02:40 | 33.32681 | -118.16304 | 15989 ft | 386 kts | 90° |
| 2026-04-24 02:40 | 33.32907 | -118.13119 | 15911 ft | 388 kts | 78° |
| 2026-04-24 02:40 | 33.33618 | -118.09991 | 15312 ft | 389 kts | 67° |
| 2026-04-24 02:40 | 33.34786 | -118.07137 | 14543 ft | 381 kts | 55° |
| 2026-04-24 02:41 | 33.36342 | -118.04666 | 13764 ft | 372 kts | 44° |
| 2026-04-24 02:41 | 33.38236 | -118.02616 | 13001 ft | 362 kts | 31° |
| 2026-04-24 02:41 | 33.40413 | -118.01218 | 12298 ft | 350 kts | 15° |
| 2026-04-24 02:41 | 33.42709 | -118.00556 | 11971 ft | 328 kts | 5° |
| 2026-04-24 02:42 | 33.44964 | -118.00275 | 11426 ft | 318 kts | 1° |
| 2026-04-24 02:42 | 33.47141 | -118.00139 | 10972 ft | 307 kts | 358° |
| 2026-04-24 02:42 | 33.49235 | -118.00131 | 10672 ft | 296 kts | 356° |
| 2026-04-24 02:42 | 33.51276 | -118.00191 | 10366 ft | 289 kts | 355° |
| 2026-04-24 02:43 | 33.53267 | -118.00275 | 10045 ft | 288 kts | 355° |
| 2026-04-24 02:43 | 33.55287 | -118.00370 | 9669 ft | 289 kts | 355° |
| 2026-04-24 02:43 | 33.57283 | -118.00466 | 9246 ft | 290 kts | 355° |
| 2026-04-24 02:43 | 33.59289 | -118.00561 | 8871 ft | 286 kts | 356° |
| 2026-04-24 02:44 | 33.61261 | -118.00648 | 8537 ft | 277 kts | 356° |
| 2026-04-24 02:44 | 33.63169 | -118.00732 | 8255 ft | 273 kts | 356° |
| 2026-04-24 02:44 | 33.65055 | -118.00942 | 7928 ft | 271 kts | 347° |
| 2026-04-24 02:44 | 33.66854 | -118.01503 | 7768 ft | 262 kts | 343° |
| 2026-04-24 02:45 | 33.68617 | -118.02116 | 7678 ft | 263 kts | 343° |
| 2026-04-24 02:45 | 33.70393 | -118.02734 | 7558 ft | 265 kts | 343° |
| 2026-04-24 02:45 | 33.72165 | -118.03346 | 7425 ft | 260 kts | 343° |
| 2026-04-24 02:45 | 33.73863 | -118.03972 | 7295 ft | 252 kts | 337° |
| 2026-04-24 02:46 | 33.75423 | -118.04906 | 7083 ft | 248 kts | 332° |
| 2026-04-24 02:46 | 33.76932 | -118.05901 | 6839 ft | 246 kts | 331° |
| 2026-04-24 02:46 | 33.78440 | -118.06914 | 6553 ft | 246 kts | 331° |
| 2026-04-24 02:46 | 33.79934 | -118.07927 | 6264 ft | 246 kts | 331° |
| 2026-04-24 02:47 | 33.81416 | -118.08944 | 5967 ft | 247 kts | 331° |
| 2026-04-24 02:47 | 33.82917 | -118.09979 | 5647 ft | 244 kts | 331° |
| 2026-04-24 02:47 | 33.84362 | -118.10972 | 5298 ft | 239 kts | 331° |
| 2026-04-24 02:47 | 33.85795 | -118.11949 | 4945 ft | 234 kts | 331° |
| 2026-04-24 02:48 | 33.87181 | -118.12894 | 4601 ft | 223 kts | 331° |
| 2026-04-24 02:48 | 33.88508 | -118.13797 | 4240 ft | 214 kts | 331° |
| 2026-04-24 02:48 | 33.89779 | -118.14655 | 3882 ft | 207 kts | 331° |
| 2026-04-24 02:48 | 33.91021 | -118.15483 | 3519 ft | 201 kts | 331° |
| 2026-04-24 02:49 | 33.92222 | -118.16296 | 3156 ft | 196 kts | 324° |
| 2026-04-24 02:49 | 33.93024 | -118.17576 | 2799 ft | 192 kts | 288° |
| 2026-04-24 02:49 | 33.93310 | -118.19119 | 2503 ft | 187 kts | 281° |
| 2026-04-24 02:49 | 33.93559 | -118.20651 | 2211 ft | 183 kts | 281° |
| 2026-04-24 02:50 | 33.93796 | -118.22067 | 2012 ft | 165 kts | 281° |
| 2026-04-24 02:50 | 33.94023 | -118.23380 | 1978 ft | 156 kts | 281° |
| 2026-04-24 02:50 | 33.94239 | -118.24623 | 1979 ft | 146 kts | 281° |
| 2026-04-24 02:50 | 33.94445 | -118.25801 | 1974 ft | 140 kts | 284° |
| 2026-04-24 02:51 | 33.94785 | -118.26895 | 1937 ft | 144 kts | 290° |
| 2026-04-24 02:51 | 33.94808 | -118.28061 | 1749 ft | 140 kts | 258° |
| 2026-04-24 02:51 | 33.94638 | -118.29218 | 1574 ft | 138 kts | 265° |
| 2026-04-24 02:51 | 33.94539 | -118.30360 | 1398 ft | 137 kts | 263° |
| 2026-04-24 02:52 | 33.94421 | -118.31493 | 1222 ft | 136 kts | 263° |
| 2026-04-24 02:52 | 33.94309 | -118.32619 | 1046 ft | 135 kts | 263° |
| 2026-04-24 02:52 | 33.94192 | -118.33754 | 857 ft | 137 kts | 264° |
| 2026-04-24 02:52 | 33.94089 | -118.34875 | 679 ft | 133 kts | 263° |
| 2026-04-24 02:53 | 33.93981 | -118.35985 | 508 ft | 134 kts | 262° |
| 2026-04-24 02:53 | 33.93858 | -118.37096 | 344 ft | 136 kts | 263° |
| 2026-04-24 02:53 | 33.93744 | -118.38229 | 172 ft | 133 kts | 263° |
| 2026-04-24 02:53 | 33.93637 | -118.39249 | 117 ft | 106 kts | 263° |
| 2026-04-24 02:54 | 33.93574 | -118.39879 | 125 ft | 39 kts | 264° |
| 2026-04-24 02:54 | 33.93570 | -118.40137 | 129 ft | 26 kts | 277° |
| 2026-04-24 02:54 | 33.93613 | -118.40330 | 132 ft | 20 kts | 289° |
| 2026-04-24 02:54 | 33.93625 | -118.40444 | 134 ft | 13 kts | 266° |
| 2026-04-24 02:55 | 33.93616 | -118.40547 | 136 ft | 12 kts | 264° |
| 2026-04-24 02:55 | 33.93606 | -118.40644 | 138 ft | 11 kts | 262° |
| 2026-04-24 02:55 | 33.93592 | -118.40772 | 139 ft | 18 kts | 263° |
| 2026-04-24 02:55 | 33.93643 | -118.40891 | 141 ft | 13 kts | 348° |
| 2026-04-24 02:56 | 33.93738 | -118.40906 | 141 ft | 14 kts | 352° |
| 2026-04-24 02:56 | 33.93834 | -118.40921 | 142 ft | 10 kts | 353° |
| 2026-04-24 02:56 | 33.93861 | -118.40978 | 141 ft | 10 kts | 265° |
| 2026-04-24 02:56 | 33.93852 | -118.41072 | 140 ft | 11 kts | 262° |
| 2026-04-24 02:57 | 33.93863 | -118.41158 | 139 ft | 9 kts | 334° |
| 2026-04-24 02:57 | 33.93941 | -118.41175 | 137 ft | 13 kts | 354° |
| 2026-04-24 02:57 | 33.94043 | -118.41190 | 136 ft | 15 kts | 353° |
| 2026-04-24 02:57 | 33.94089 | -118.41177 | 137 ft | 5 kts | 69° |
| 2026-04-24 02:58 | 33.94095 | -118.41128 | 138 ft | 6 kts | 83° |
| 2026-04-24 02:58 | 33.94099 | -118.41089 | 138 ft | 1 kts | 82° |
| 2026-04-24 02:58 | 33.94100 | -118.41080 | 138 ft | 0 kts | 82° |